Wetterdaten: Dienstag, 02.05.2023
Datum Zeit Temp. Aussen Temp. o. S. Temp +5cm Feuchte Auss Luftdruck Regen Sonnenschein Regendauer Solar Windben Empfang
02.05.2023 00:00 11,4 C 10,6 C 7,2 C 91 % 1018,5 hPa 0,0 l/m 0 min 0 min 0 W/m 6,4 km/h (2 Bft) 100,00 %
02.05.2023 00:02 11,4 C 10,6 C 7,2 C 91 % 1018,5 hPa 0,0 l/m 0 min 0 min 0 W/m 6,4 km/h (2 Bft) 97,37 %
02.05.2023 00:04 11,4 C 10,6 C 7,2 C 91 % 1018,4 hPa 0,0 l/m 0 min 0 min 0 W/m 6,4 km/h (2 Bft) 95,92 %
02.05.2023 00:10 11,4 C 10,6 C 7,2 C 90 % 1018,5 hPa 0,0 l/m 0 min 0 min 0 W/m 9,7 km/h (2 Bft) 100,00 %
02.05.2023 00:12 11,4 C 10,6 C 7,2 C 90 % 1018,5 hPa 0,0 l/m 0 min 0 min 0 W/m 9,7 km/h (2 Bft) 100,00 %
02.05.2023 00:14 11,4 C 10,6 C 7,2 C 90 % 1018,5 hPa 0,0 l/m 0 min 0 min 0 W/m 6,4 km/h (2 Bft) 100,00 %
02.05.2023 00:16 11,4 C 10,6 C 7,2 C 90 % 1018,6 hPa 0,0 l/m 0 min 0 min 0 W/m 3,2 km/h (1 Bft) 97,87 %
02.05.2023 00:18 11,3 C 10,6 C 7,2 C 90 % 1018,6 hPa 0,0 l/m 0 min 0 min 0 W/m 12,9 km/h (3 Bft) 100,00 %
02.05.2023 00:20 11,3 C 10,6 C 7,2 C 90 % 1018,6 hPa 0,0 l/m 0 min 0 min 0 W/m 3,2 km/h (1 Bft) 100,00 %
02.05.2023 00:22 11,3 C 10,6 C 7,2 C 90 % 1018,7 hPa 0,0 l/m 0 min 0 min 0 W/m 6,4 km/h (2 Bft) 100,00 %
02.05.2023 00:24 11,3 C 10,6 C 7,2 C 90 % 1018,7 hPa 0,0 l/m 0 min 0 min 0 W/m 6,4 km/h (2 Bft) 100,00 %
02.05.2023 00:26 11,3 C 10,6 C 7,2 C 90 % 1018,7 hPa 0,0 l/m 0 min 0 min 0 W/m 3,2 km/h (1 Bft) 97,87 %
02.05.2023 00:28 11,3 C 10,6 C 7,2 C 90 % 1018,7 hPa 0,0 l/m 0 min 0 min 0 W/m 3,2 km/h (1 Bft) 97,87 %
02.05.2023 00:30 11,2 C 10,6 C 7,2 C 90 % 1018,8 hPa 0,0 l/m 0 min 0 min 0 W/m 3,2 km/h (1 Bft) 97,83 %
02.05.2023 00:32 11,2 C 10,6 C 7,2 C 90 % 1018,8 hPa 0,0 l/m 0 min 0 min 0 W/m 3,2 km/h (1 Bft) 96,23 %
02.05.2023 00:34 11,2 C 10,6 C 7,2 C 90 % 1018,8 hPa 0,0 l/m 0 min 0 min 0 W/m 3,2 km/h (1 Bft) 95,74 %
02.05.2023 00:36 11,2 C 10,6 C 7,2 C 90 % 1018,8 hPa 0,0 l/m 0 min 0 min 0 W/m 3,2 km/h (1 Bft) 97,87 %
02.05.2023 00:38 11,2 C 10,6 C 7,2 C 90 % 1018,9 hPa 0,0 l/m 0 min 0 min 0 W/m 3,2 km/h (1 Bft) 97,87 %
02.05.2023 00:40 11,2 C 10,0 C 7,2 C 90 % 1018,9 hPa 0,0 l/m 0 min 0 min 0 W/m 3,2 km/h (1 Bft) 97,87 %
02.05.2023 00:42 11,2 C 10,0 C 7,2 C 90 % 1019,0 hPa 0,0 l/m 0 min 0 min 0 W/m 3,2 km/h (1 Bft) 95,65 %
02.05.2023 00:44 11,2 C 10,0 C 6,7 C 90 % 1019,0 hPa 0,0 l/m 0 min 0 min 0 W/m 0,0 km/h (0 Bft) 95,74 %
02.05.2023 00:46 11,2 C 10,0 C 6,7 C 90 % 1018,9 hPa 0,0 l/m 0 min 0 min 0 W/m 3,2 km/h (1 Bft) 95,12 %
02.05.2023 00:48 11,1 C 10,0 C 6,7 C 90 % 1018,9 hPa 0,0 l/m 0 min 0 min 0 W/m 0,0 km/h (0 Bft) 95,74 %
02.05.2023 00:50 11,1 C 10,0 C 6,7 C 90 % 1018,9 hPa 0,0 l/m 0 min 0 min 0 W/m 3,2 km/h (1 Bft) 93,62 %
02.05.2023 00:52 11,1 C 10,0 C 6,7 C 90 % 1019,0 hPa 0,0 l/m 0 min 0 min 0 W/m 3,2 km/h (1 Bft) 95,74 %
02.05.2023 00:54 11,1 C 9,4 C 6,7 C 90 % 1019,0 hPa 0,0 l/m 0 min 0 min 0 W/m 3,2 km/h (1 Bft) 95,74 %
02.05.2023 00:56 11,1 C 9,4 C 6,7 C 90 % 1019,1 hPa 0,0 l/m 0 min 0 min 0 W/m 3,2 km/h (1 Bft) 93,62 %
02.05.2023 00:58 11,0 C 9,4 C 6,1 C 90 % 1019,1 hPa 0,0 l/m 0 min 0 min 0 W/m 3,2 km/h (1 Bft) 95,65 %
02.05.2023 01:00 10,9 C 9,4 C 6,1 C 90 % 1019,1 hPa 0,0 l/m 0 min 0 min 0 W/m 3,2 km/h (1 Bft) 95,74 %
02.05.2023 01:02 10,9 C 9,4 C 6,1 C 90 % 1019,1 hPa 0,0 l/m 0 min 0 min 0 W/m 6,4 km/h (2 Bft) 95,74 %
02.05.2023 01:04 10,9 C 9,4 C 6,1 C 90 % 1019,2 hPa 0,0 l/m 0 min 0 min 0 W/m 3,2 km/h (1 Bft) 93,75 %
02.05.2023 01:06 10,9 C 9,4 C 6,1 C 90 % 1019,2 hPa 0,0 l/m 0 min 0 min 0 W/m 0,0 km/h (0 Bft) 95,74 %
02.05.2023 01:08 10,8 C 9,4 C 6,1 C 90 % 1019,2 hPa 0,0 l/m 0 min 0 min 0 W/m 3,2 km/h (1 Bft) 95,74 %
02.05.2023 01:10 10,8 C 9,4 C 6,1 C 90 % 1019,2 hPa 0,0 l/m 0 min 0 min 0 W/m 3,2 km/h (1 Bft) 95,74 %
02.05.2023 01:12 10,7 C 9,4 C 6,1 C 90 % 1019,2 hPa 0,0 l/m 0 min 0 min 0 W/m 0,0 km/h (0 Bft) 93,48 %
02.05.2023 01:14 10,7 C 9,4 C 6,1 C 90 % 1019,2 hPa 0,0 l/m 0 min 0 min 0 W/m 3,2 km/h (1 Bft) 95,83 %
02.05.2023 01:16 10,7 C 9,4 C 6,1 C 90 % 1019,2 hPa 0,0 l/m 0 min 0 min 0 W/m 3,2 km/h (1 Bft) 91,49 %
02.05.2023 01:18 10,7 C 9,4 C 6,1 C 90 % 1019,2 hPa 0,0 l/m 0 min 0 min 0 W/m 3,2 km/h (1 Bft) 93,62 %
02.05.2023 01:20 10,6 C 9,4 C 6,1 C 91 % 1019,2 hPa 0,0 l/m 0 min 0 min 0 W/m 3,2 km/h (1 Bft) 95,74 %
02.05.2023 01:22 10,6 C 9,4 C 6,1 C 91 % 1019,2 hPa 0,0 l/m 0 min 0 min 0 W/m 3,2 km/h (1 Bft) 95,74 %
02.05.2023 01:24 10,6 C 9,4 C 6,1 C 91 % 1019,3 hPa 0,0 l/m 0 min 0 min 0 W/m 0,0 km/h (0 Bft) 94,74 %
02.05.2023 01:26 10,5 C 9,4 C 6,1 C 91 % 1019,3 hPa 0,0 l/m 0 min 0 min 0 W/m 6,4 km/h (2 Bft) 96,23 %
02.05.2023 01:28 10,5 C 9,4 C 6,1 C 91 % 1019,2 hPa 0,0 l/m 0 min 0 min 0 W/m 3,2 km/h (1 Bft) 93,62 %
02.05.2023 01:30 10,4 C 9,4 C 6,1 C 91 % 1019,3 hPa 0,0 l/m 0 min 0 min 0 W/m 3,2 km/h (1 Bft) 93,62 %
02.05.2023 01:32 10,4 C 9,4 C 6,1 C 91 % 1019,2 hPa 0,0 l/m 0 min 0 min 0 W/m 0,0 km/h (0 Bft) 94,12 %
02.05.2023 01:34 10,4 C 9,4 C 6,1 C 91 % 1019,3 hPa 0,0 l/m 0 min 0 min 0 W/m 0,0 km/h (0 Bft) 95,74 %
02.05.2023 01:36 10,4 C 9,4 C 6,1 C 91 % 1019,3 hPa 0,0 l/m 0 min 0 min 0 W/m 3,2 km/h (1 Bft) 93,48 %
02.05.2023 01:38 10,3 C 9,4 C 6,1 C 91 % 1019,2 hPa 0,0 l/m 0 min 0 min 0 W/m 3,2 km/h (1 Bft) 97,87 %
02.05.2023 01:40 10,3 C 8,9 C 6,1 C 91 % 1019,3 hPa 0,0 l/m 0 min 0 min 0 W/m 3,2 km/h (1 Bft) 97,87 %
02.05.2023 01:42 10,3 C 8,9 C 6,1 C 91 % 1019,3 hPa 0,0 l/m 0 min 0 min 0 W/m 0,0 km/h (0 Bft) 95,74 %
02.05.2023 01:44 10,3 C 8,9 C 5,6 C 91 % 1019,2 hPa 0,0 l/m 0 min 0 min 0 W/m 3,2 km/h (1 Bft) 100,00 %
02.05.2023 01:46 10,2 C 8,9 C 5,6 C 91 % 1019,3 hPa 0,0 l/m 0 min 0 min 0 W/m 0,0 km/h (0 Bft) 100,00 %
02.05.2023 01:48 10,2 C 8,9 C 5,6 C 91 % 1019,3 hPa 0,0 l/m 0 min 0 min 0 W/m 0,0 km/h (0 Bft) 100,00 %
02.05.2023 01:50 10,2 C 8,9 C 5,6 C 91 % 1019,3 hPa 0,0 l/m 0 min 0 min 0 W/m 0,0 km/h (0 Bft) 97,83 %
02.05.2023 01:52 10,2 C 8,9 C 5,6 C 91 % 1019,4 hPa 0,0 l/m 0 min 0 min 0 W/m 0,0 km/h (0 Bft) 97,87 %
02.05.2023 01:54 10,1 C 8,9 C 5,6 C 91 % 1019,4 hPa 0,0 l/m 0 min 0 min 0 W/m 3,2 km/h (1 Bft) 97,87 %
02.05.2023 01:56 10,1 C 8,9 C 5,6 C 91 % 1019,5 hPa 0,0 l/m 0 min 0 min 0 W/m 3,2 km/h (1 Bft) 95,74 %
02.05.2023 01:58 10,1 C 8,9 C 5,6 C 91 % 1019,5 hPa 0,0 l/m 0 min 0 min 0 W/m 6,4 km/h (2 Bft) 97,87 %
02.05.2023 02:00 10,1 C 8,9 C 5,6 C 91 % 1019,5 hPa 0,0 l/m 0 min 0 min 0 W/m 6,4 km/h (2 Bft) 97,22 %
02.05.2023 02:02 10,0 C 8,9 C 5,6 C 91 % 1019,5 hPa 0,0 l/m 0 min 0 min 0 W/m 6,4 km/h (2 Bft) 100,00 %
02.05.2023 02:04 10,0 C 8,9 C 5,6 C 92 % 1019,6 hPa 0,0 l/m 0 min 0 min 0 W/m 6,4 km/h (2 Bft) 100,00 %
02.05.2023 02:06 9,9 C 8,9 C 5,6 C 92 % 1019,6 hPa 0,0 l/m 0 min 0 min 0 W/m 12,9 km/h (3 Bft) 96,55 %
02.05.2023 02:08 9,9 C 8,9 C 5,6 C 92 % 1019,6 hPa 0,0 l/m 0 min 0 min 0 W/m 6,4 km/h (2 Bft) 97,14 %
02.05.2023 02:10 9,9 C 8,9 C 5,6 C 92 % 1019,7 hPa 0,0 l/m 0 min 0 min 0 W/m 3,2 km/h (1 Bft) 98,18 %
02.05.2023 02:17 9,8 C 8,9 C 5,6 C 92 % 1019,6 hPa 0,0 l/m 0 min 0 min 0 W/m 12,9 km/h (3 Bft) 97,44 %
02.05.2023 02:18 9,8 C 8,9 C 5,6 C 92 % 1019,6 hPa 0,0 l/m 0 min 0 min 0 W/m 3,2 km/h (1 Bft) 33,33 %
02.05.2023 02:20 9,8 C 8,9 C 5,6 C 92 % 1019,6 hPa 0,0 l/m 0 min 0 min 0 W/m 9,7 km/h (2 Bft) 87,50 %
02.05.2023 02:22 9,7 C 8,9 C 5,6 C 92 % 1019,6 hPa 0,0 l/m 0 min 0 min 0 W/m 9,7 km/h (2 Bft) 100,00 %
02.05.2023 02:24 9,7 C 8,9 C 5,6 C 92 % 1019,6 hPa 0,0 l/m 0 min 0 min 0 W/m 6,4 km/h (2 Bft) 100,00 %
02.05.2023 02:26 9,7 C 8,9 C 5,6 C 92 % 1019,6 hPa 0,0 l/m 0 min 0 min 0 W/m 3,2 km/h (1 Bft) 100,00 %
02.05.2023 02:28 9,7 C 8,9 C 5,6 C 92 % 1019,7 hPa 0,0 l/m 0 min 0 min 0 W/m 9,7 km/h (2 Bft) 100,00 %
02.05.2023 02:30 9,7 C 8,9 C 5,6 C 92 % 1019,7 hPa 0,0 l/m 0 min 0 min 0 W/m 6,4 km/h (2 Bft) 97,87 %
02.05.2023 02:32 9,7 C 8,9 C 5,6 C 92 % 1019,7 hPa 0,0 l/m 0 min 0 min 0 W/m 3,2 km/h (1 Bft) 100,00 %
02.05.2023 02:34 9,6 C 8,3 C 5,6 C 92 % 1019,7 hPa 0,0 l/m 0 min 0 min 0 W/m 6,4 km/h (2 Bft) 100,00 %
02.05.2023 02:36 9,6 C 8,9 C 5,6 C 92 % 1019,7 hPa 0,0 l/m 0 min 0 min 0 W/m 6,4 km/h (2 Bft) 97,87 %
02.05.2023 02:38 9,6 C 8,3 C 5,6 C 92 % 1019,8 hPa 0,0 l/m 0 min 0 min 0 W/m 6,4 km/h (2 Bft) 97,87 %
02.05.2023 02:40 9,6 C 8,3 C 5,6 C 92 % 1019,8 hPa 0,0 l/m 0 min 0 min 0 W/m 9,7 km/h (2 Bft) 97,87 %
02.05.2023 02:42 9,6 C 8,3 C 5,6 C 93 % 1019,8 hPa 0,0 l/m 0 min 0 min 0 W/m 12,9 km/h (3 Bft) 97,87 %
02.05.2023 02:44 9,6 C 8,9 C 5,6 C 93 % 1019,8 hPa 0,0 l/m 0 min 0 min 0 W/m 12,9 km/h (3 Bft) 100,00 %
02.05.2023 02:46 9,6 C 8,9 C 5,6 C 93 % 1019,8 hPa 0,0 l/m 0 min 0 min 0 W/m 9,7 km/h (2 Bft) 97,83 %
02.05.2023 02:48 9,6 C 8,9 C 5,6 C 93 % 1019,8 hPa 0,0 l/m 0 min 0 min 0 W/m 6,4 km/h (2 Bft) 97,96 %
02.05.2023 02:50 9,6 C 8,9 C 5,6 C 93 % 1019,8 hPa 0,0 l/m 0 min 0 min 0 W/m 9,7 km/h (2 Bft) 100,00 %
02.05.2023 02:52 9,6 C 8,9 C 5,6 C 93 % 1019,8 hPa 0,0 l/m 0 min 0 min 0 W/m 6,4 km/h (2 Bft) 95,74 %
02.05.2023 02:54 9,6 C 8,9 C 5,6 C 93 % 1019,8 hPa 0,0 l/m 0 min 0 min 0 W/m 3,2 km/h (1 Bft) 100,00 %
02.05.2023 02:56 9,6 C 8,3 C 5,6 C 93 % 1019,8 hPa 0,0 l/m 0 min 0 min 0 W/m 3,2 km/h (1 Bft) 100,00 %
02.05.2023 02:58 9,6 C 8,3 C 5,6 C 93 % 1019,8 hPa 0,0 l/m 0 min 0 min 0 W/m 0,0 km/h (0 Bft) 100,00 %
02.05.2023 03:00 9,6 C 8,3 C 5,6 C 93 % 1019,9 hPa 0,0 l/m 0 min 0 min 0 W/m 0,0 km/h (0 Bft) 95,74 %
02.05.2023 03:02 9,6 C 8,3 C 5,6 C 93 % 1019,9 hPa 0,0 l/m 0 min 0 min 0 W/m 6,4 km/h (2 Bft) 97,87 %
02.05.2023 03:04 9,6 C 8,9 C 5,6 C 94 % 1019,9 hPa 0,0 l/m 0 min 0 min 0 W/m 3,2 km/h (1 Bft) 100,00 %
02.05.2023 03:06 9,6 C 8,9 C 5,6 C 94 % 1019,9 hPa 0,0 l/m 0 min 0 min 0 W/m 9,7 km/h (2 Bft) 100,00 %
02.05.2023 03:08 9,6 C 8,9 C 5,6 C 94 % 1019,9 hPa 0,0 l/m 0 min 0 min 0 W/m 6,4 km/h (2 Bft) 100,00 %
02.05.2023 03:10 9,6 C 8,9 C 6,1 C 94 % 1020,0 hPa 0,0 l/m 0 min 0 min 0 W/m 3,2 km/h (1 Bft) 97,37 %
02.05.2023 03:12 9,6 C 8,9 C 6,1 C 94 % 1020,0 hPa 0,0 l/m 0 min 0 min 0 W/m 6,4 km/h (2 Bft) 100,00 %
02.05.2023 03:14 9,7 C 8,9 C 6,1 C 94 % 1020,0 hPa 0,0 l/m 0 min 0 min 0 W/m 6,4 km/h (2 Bft) 100,00 %
02.05.2023 03:16 9,7 C 8,9 C 6,1 C 94 % 1020,0 hPa 0,0 l/m 0 min 0 min 0 W/m 9,7 km/h (2 Bft) 97,87 %
02.05.2023 03:18 9,7 C 9,4 C 6,1 C 94 % 1020,1 hPa 0,0 l/m 0 min 0 min 0 W/m 9,7 km/h (2 Bft) 97,87 %
02.05.2023 03:20 9,8 C 9,4 C 6,1 C 94 % 1020,0 hPa 0,0 l/m 0 min 0 min 0 W/m 12,9 km/h (3 Bft) 97,87 %
02.05.2023 03:22 9,8 C 9,4 C 6,1 C 94 % 1020,0 hPa 0,0 l/m 0 min 0 min 0 W/m 9,7 km/h (2 Bft) 95,74 %
02.05.2023 03:24 9,8 C 9,4 C 6,1 C 94 % 1020,0 hPa 0,0 l/m 0 min 0 min 0 W/m 6,4 km/h (2 Bft) 97,87 %
02.05.2023 03:26 9,8 C 9,4 C 6,1 C 94 % 1020,0 hPa 0,0 l/m 0 min 0 min 0 W/m 9,7 km/h (2 Bft) 97,83 %
02.05.2023 03:28 9,9 C 9,4 C 6,1 C 94 % 1020,0 hPa 0,0 l/m 0 min 0 min 0 W/m 6,4 km/h (2 Bft) 97,87 %
02.05.2023 03:30 9,9 C 9,4 C 6,1 C 94 % 1020,0 hPa 0,0 l/m 0 min 0 min 0 W/m 12,9 km/h (3 Bft) 97,87 %
02.05.2023 03:32 9,9 C 9,4 C 6,1 C 94 % 1020,0 hPa 0,0 l/m 0 min 0 min 0 W/m 12,9 km/h (3 Bft) 97,87 %
02.05.2023 03:34 9,9 C 9,4 C 6,1 C 94 % 1020,0 hPa 0,0 l/m 0 min 0 min 0 W/m 6,4 km/h (2 Bft) 97,87 %
02.05.2023 03:36 9,9 C 9,4 C 6,1 C 95 % 1020,0 hPa 0,0 l/m 0 min 0 min 0 W/m 6,4 km/h (2 Bft) 97,87 %
02.05.2023 03:38 10,0 C 9,4 C 6,1 C 95 % 1020,0 hPa 0,0 l/m 0 min 0 min 0 W/m 6,4 km/h (2 Bft) 97,83 %
02.05.2023 03:40 10,0 C 9,4 C 6,1 C 95 % 1020,0 hPa 0,0 l/m 0 min 0 min 0 W/m 0,0 km/h (0 Bft) 97,14 %
02.05.2023 03:42 10,1 C 9,4 C 6,7 C 95 % 1020,1 hPa 0,0 l/m 0 min 0 min 0 W/m 3,2 km/h (1 Bft) 97,87 %
02.05.2023 03:44 10,1 C 9,4 C 6,7 C 95 % 1020,1 hPa 0,0 l/m 0 min 0 min 0 W/m 9,7 km/h (2 Bft) 95,74 %
02.05.2023 03:46 10,1 C 9,4 C 6,7 C 95 % 1020,1 hPa 0,0 l/m 0 min 0 min 0 W/m 6,4 km/h (2 Bft) 97,87 %
02.05.2023 03:48 10,1 C 9,4 C 6,7 C 95 % 1020,1 hPa 0,0 l/m 0 min 0 min 0 W/m 6,4 km/h (2 Bft) 95,74 %
02.05.2023 03:50 10,1 C 9,4 C 6,7 C 95 % 1020,1 hPa 0,0 l/m 0 min 0 min 0 W/m 6,4 km/h (2 Bft) 95,74 %
02.05.2023 03:52 10,1 C 9,4 C 6,7 C 95 % 1020,1 hPa 0,0 l/m 0 min 0 min 0 W/m 3,2 km/h (1 Bft) 51,16 %
02.05.2023 03:54 10,2 C 9,4 C 6,7 C 95 % 1020,2 hPa 0,0 l/m 0 min 0 min 0 W/m 3,2 km/h (1 Bft) 93,88 %
02.05.2023 03:56 10,2 C 9,4 C 6,7 C 95 % 1020,1 hPa 0,0 l/m 0 min 0 min 0 W/m 6,4 km/h (2 Bft) 95,74 %
02.05.2023 03:58 10,2 C 9,4 C 6,7 C 95 % 1020,3 hPa 0,0 l/m 0 min 0 min 0 W/m 3,2 km/h (1 Bft) 95,74 %
02.05.2023 04:00 10,2 C 9,4 C 6,7 C 95 % 1020,3 hPa 0,0 l/m 0 min 0 min 0 W/m 3,2 km/h (1 Bft) 97,87 %
02.05.2023 04:02 10,2 C 9,4 C 6,7 C 95 % 1020,3 hPa 0,0 l/m 0 min 0 min 0 W/m 6,4 km/h (2 Bft) 95,65 %
02.05.2023 04:04 10,2 C 9,4 C 6,7 C 95 % 1020,3 hPa 0,0 l/m 0 min 0 min 0 W/m 3,2 km/h (1 Bft) 97,87 %
02.05.2023 04:06 10,2 C 9,4 C 6,7 C 95 % 1020,3 hPa 0,0 l/m 0 min 0 min 0 W/m 3,2 km/h (1 Bft) 95,92 %
02.05.2023 04:08 10,2 C 9,4 C 6,7 C 95 % 1020,3 hPa 0,0 l/m 0 min 0 min 0 W/m 3,2 km/h (1 Bft) 97,87 %
02.05.2023 04:10 10,2 C 9,4 C 6,7 C 95 % 1020,3 hPa 0,0 l/m 0 min 0 min 0 W/m 3,2 km/h (1 Bft) 95,83 %
02.05.2023 04:12 10,3 C 9,4 C 6,7 C 95 % 1020,3 hPa 0,0 l/m 0 min 0 min 0 W/m 3,2 km/h (1 Bft) 97,87 %
02.05.2023 04:14 10,3 C 10,0 C 6,7 C 95 % 1020,3 hPa 0,0 l/m 0 min 0 min 0 W/m 3,2 km/h (1 Bft) 93,48 %
02.05.2023 04:16 10,3 C 10,0 C 6,7 C 95 % 1020,4 hPa 0,0 l/m 0 min 0 min 0 W/m 3,2 km/h (1 Bft) 94,59 %
02.05.2023 04:18 10,3 C 10,0 C 6,7 C 95 % 1020,4 hPa 0,0 l/m 0 min 0 min 0 W/m 6,4 km/h (2 Bft) 95,65 %
02.05.2023 04:20 10,3 C 10,0 C 6,7 C 95 % 1020,4 hPa 0,0 l/m 0 min 0 min 0 W/m 3,2 km/h (1 Bft) 95,83 %
02.05.2023 04:22 10,3 C 10,0 C 6,7 C 95 % 1020,4 hPa 0,0 l/m 0 min 0 min 0 W/m 6,4 km/h (2 Bft) 97,83 %
02.05.2023 04:24 10,3 C 10,0 C 6,7 C 95 % 1020,4 hPa 0,0 l/m 0 min 0 min 0 W/m 3,2 km/h (1 Bft) 97,87 %
02.05.2023 04:26 10,3 C 10,0 C 6,7 C 95 % 1020,5 hPa 0,0 l/m 0 min 0 min 0 W/m 9,7 km/h (2 Bft) 91,49 %
02.05.2023 04:28 10,3 C 10,0 C 6,7 C 95 % 1020,4 hPa 0,0 l/m 0 min 0 min 0 W/m 6,4 km/h (2 Bft) 97,87 %
02.05.2023 04:30 10,3 C 9,4 C 6,7 C 95 % 1020,4 hPa 0,0 l/m 0 min 0 min 0 W/m 6,4 km/h (2 Bft) 97,87 %
02.05.2023 04:32 10,3 C 10,0 C 6,7 C 95 % 1020,5 hPa 0,0 l/m 0 min 0 min 0 W/m 3,2 km/h (1 Bft) 97,87 %
02.05.2023 04:34 10,3 C 10,0 C 6,7 C 95 % 1020,5 hPa 0,0 l/m 0 min 0 min 0 W/m 3,2 km/h (1 Bft) 97,83 %
02.05.2023 04:36 10,3 C 10,0 C 6,7 C 95 % 1020,4 hPa 0,0 l/m 0 min 0 min 0 W/m 6,4 km/h (2 Bft) 93,62 %
02.05.2023 04:38 10,3 C 10,0 C 6,7 C 95 % 1020,5 hPa 0,0 l/m 0 min 0 min 0 W/m 6,4 km/h (2 Bft) 97,87 %
02.05.2023 04:40 10,3 C 10,0 C 6,7 C 95 % 1020,5 hPa 0,0 l/m 0 min 0 min 0 W/m 3,2 km/h (1 Bft) 96,30 %
02.05.2023 04:42 10,3 C 10,0 C 6,7 C 95 % 1020,5 hPa 0,0 l/m 0 min 0 min 0 W/m 6,4 km/h (2 Bft) 97,83 %
02.05.2023 04:44 10,3 C 10,0 C 6,7 C 95 % 1020,6 hPa 0,0 l/m 0 min 0 min 0 W/m 6,4 km/h (2 Bft) 97,87 %
02.05.2023 04:46 10,3 C 10,0 C 6,7 C 95 % 1020,6 hPa 0,0 l/m 0 min 0 min 0 W/m 6,4 km/h (2 Bft) 97,87 %
02.05.2023 04:48 10,4 C 10,0 C 6,7 C 95 % 1020,6 hPa 0,0 l/m 0 min 0 min 0 W/m 3,2 km/h (1 Bft) 97,87 %
02.05.2023 04:50 10,3 C 10,0 C 6,7 C 95 % 1020,6 hPa 0,0 l/m 0 min 0 min 0 W/m 6,4 km/h (2 Bft) 97,87 %
02.05.2023 04:52 10,4 C 10,0 C 6,7 C 95 % 1020,6 hPa 0,0 l/m 0 min 0 min 0 W/m 6,4 km/h (2 Bft) 97,87 %
02.05.2023 04:54 10,4 C 10,0 C 6,7 C 95 % 1020,6 hPa 0,0 l/m 0 min 0 min 0 W/m 3,2 km/h (1 Bft) 97,87 %
02.05.2023 04:56 10,4 C 10,0 C 6,7 C 95 % 1020,7 hPa 0,0 l/m 0 min 0 min 0 W/m 3,2 km/h (1 Bft) 95,65 %
02.05.2023 04:58 10,4 C 10,0 C 6,7 C 95 % 1020,7 hPa 0,0 l/m 0 min 0 min 0 W/m 3,2 km/h (1 Bft) 95,74 %
02.05.2023 05:00 10,4 C 10,0 C 6,7 C 95 % 1020,7 hPa 0,0 l/m 0 min 0 min 0 W/m 6,4 km/h (2 Bft) 100,00 %
02.05.2023 05:02 10,4 C 10,0 C 6,7 C 95 % 1020,7 hPa 0,0 l/m 0 min 0 min 0 W/m 3,2 km/h (1 Bft) 100,00 %
02.05.2023 05:04 10,4 C 10,0 C 6,7 C 95 % 1020,8 hPa 0,0 l/m 0 min 0 min 0 W/m 9,7 km/h (2 Bft) 100,00 %
02.05.2023 05:06 10,4 C 10,0 C 6,7 C 95 % 1020,7 hPa 0,0 l/m 0 min 0 min 0 W/m 6,4 km/h (2 Bft) 100,00 %
02.05.2023 05:08 10,4 C 10,0 C 6,7 C 95 % 1020,7 hPa 0,0 l/m 0 min 0 min 0 W/m 6,4 km/h (2 Bft) 97,87 %
02.05.2023 05:10 10,4 C 10,0 C 6,7 C 95 % 1020,8 hPa 0,0 l/m 0 min 0 min 0 W/m 12,9 km/h (3 Bft) 97,87 %
02.05.2023 05:12 10,4 C 10,0 C 6,7 C 95 % 1020,8 hPa 0,0 l/m 0 min 0 min 0 W/m 6,4 km/h (2 Bft) 100,00 %
02.05.2023 05:14 10,4 C 10,0 C 6,7 C 95 % 1020,8 hPa 0,0 l/m 0 min 0 min 0 W/m 9,7 km/h (2 Bft) 97,83 %
02.05.2023 05:16 10,4 C 10,0 C 6,7 C 95 % 1020,9 hPa 0,0 l/m 0 min 0 min 0 W/m 6,4 km/h (2 Bft) 95,74 %
02.05.2023 05:18 10,4 C 10,0 C 6,7 C 95 % 1020,9 hPa 0,0 l/m 0 min 0 min 0 W/m 6,4 km/h (2 Bft) 100,00 %
02.05.2023 05:20 10,4 C 10,0 C 6,7 C 95 % 1020,8 hPa 0,0 l/m 0 min 0 min 0 W/m 9,7 km/h (2 Bft) 100,00 %
02.05.2023 05:22 10,4 C 10,0 C 6,7 C 95 % 1020,9 hPa 0,0 l/m 0 min 0 min 0 W/m 3,2 km/h (1 Bft) 100,00 %
02.05.2023 05:24 10,4 C 10,0 C 6,7 C 95 % 1020,9 hPa 0,0 l/m 0 min 0 min 0 W/m 6,4 km/h (2 Bft) 100,00 %
02.05.2023 05:26 10,4 C 10,0 C 6,7 C 95 % 1020,9 hPa 0,0 l/m 0 min 0 min 0 W/m 6,4 km/h (2 Bft) 100,00 %
02.05.2023 05:28 10,4 C 10,0 C 6,7 C 95 % 1020,9 hPa 0,0 l/m 0 min 0 min 0 W/m 6,4 km/h (2 Bft) 97,83 %
02.05.2023 05:30 10,4 C 10,0 C 6,7 C 95 % 1020,9 hPa 0,0 l/m 0 min 0 min 0 W/m 3,2 km/h (1 Bft) 100,00 %
02.05.2023 05:32 10,4 C 10,0 C 6,7 C 94 % 1020,9 hPa 0,0 l/m 0 min 0 min 0 W/m 3,2 km/h (1 Bft) 100,00 %
02.05.2023 05:34 10,4 C 10,0 C 6,7 C 94 % 1020,9 hPa 0,0 l/m 0 min 0 min 0 W/m 3,2 km/h (1 Bft) 97,87 %
02.05.2023 05:36 10,4 C 10,0 C 6,7 C 94 % 1020,9 hPa 0,0 l/m 0 min 0 min 0 W/m 0,0 km/h (0 Bft) 95,74 %
02.05.2023 05:38 10,4 C 10,0 C 6,7 C 95 % 1020,9 hPa 0,0 l/m 0 min 0 min 0 W/m 3,2 km/h (1 Bft) 100,00 %
02.05.2023 05:40 10,4 C 10,0 C 6,7 C 95 % 1021,0 hPa 0,0 l/m 0 min 0 min 0 W/m 3,2 km/h (1 Bft) 97,87 %
02.05.2023 05:42 10,4 C 10,0 C 6,7 C 95 % 1021,0 hPa 0,0 l/m 0 min 0 min 0 W/m 3,2 km/h (1 Bft) 95,65 %
02.05.2023 05:44 10,4 C 10,0 C 6,7 C 95 % 1021,0 hPa 0,0 l/m 0 min 0 min 0 W/m 3,2 km/h (1 Bft) 97,87 %
02.05.2023 05:46 10,4 C 10,0 C 6,7 C 95 % 1021,0 hPa 0,0 l/m 0 min 0 min 0 W/m 3,2 km/h (1 Bft) 95,74 %
02.05.2023 05:48 10,4 C 10,0 C 6,7 C 95 % 1021,0 hPa 0,0 l/m 0 min 0 min 0 W/m 9,7 km/h (2 Bft) 95,74 %
02.05.2023 05:50 10,4 C 10,0 C 6,7 C 95 % 1021,0 hPa 0,0 l/m 0 min 0 min 0 W/m 3,2 km/h (1 Bft) 97,87 %
02.05.2023 05:52 10,4 C 10,0 C 6,7 C 95 % 1021,1 hPa 0,0 l/m 0 min 0 min 0 W/m 3,2 km/h (1 Bft) 95,74 %
02.05.2023 05:54 10,4 C 10,0 C 6,7 C 95 % 1021,1 hPa 0,0 l/m 0 min 0 min 0 W/m 3,2 km/h (1 Bft) 95,65 %
02.05.2023 05:56 10,4 C 10,0 C 6,7 C 94 % 1021,0 hPa 0,0 l/m 0 min 0 min 0 W/m 3,2 km/h (1 Bft) 95,74 %
02.05.2023 05:58 10,4 C 10,0 C 6,7 C 95 % 1021,0 hPa 0,0 l/m 0 min 0 min 0 W/m 3,2 km/h (1 Bft) 95,74 %
02.05.2023 06:00 10,4 C 10,0 C 6,7 C 95 % 1021,1 hPa 0,0 l/m 0 min 0 min 0 W/m 3,2 km/h (1 Bft) 93,62 %
02.05.2023 06:02 10,4 C 10,0 C 6,7 C 95 % 1021,1 hPa 0,0 l/m 0 min 0 min 0 W/m 0,0 km/h (0 Bft) 95,74 %
02.05.2023 06:04 10,4 C 10,0 C 6,7 C 95 % 1021,0 hPa 0,0 l/m 0 min 0 min 0 W/m 3,2 km/h (1 Bft) 95,92 %
02.05.2023 06:07 10,4 C 10,0 C 6,7 C 95 % 1021,1 hPa 0,0 l/m 0 min 0 min 0 W/m 3,2 km/h (1 Bft) 95,71 %
02.05.2023 06:08 10,4 C 10,0 C 6,7 C 95 % 1021,1 hPa 0,0 l/m 0 min 0 min 0 W/m 0,0 km/h (0 Bft) 95,65 %
02.05.2023 06:12 10,4 C 10,0 C 6,7 C 95 % 1021,2 hPa 0,0 l/m 0 min 0 min 0 W/m 3,2 km/h (1 Bft) 98,21 %
02.05.2023 06:14 10,4 C 10,0 C 6,7 C 95 % 1021,2 hPa 0,0 l/m 0 min 0 min 0 W/m 3,2 km/h (1 Bft) 97,87 %
02.05.2023 06:16 10,4 C 10,0 C 6,7 C 95 % 1021,3 hPa 0,0 l/m 0 min 0 min 0 W/m 6,4 km/h (2 Bft) 97,87 %
02.05.2023 06:18 10,4 C 10,0 C 6,7 C 95 % 1021,3 hPa 0,0 l/m 0 min 0 min 0 W/m 9,7 km/h (2 Bft) 97,83 %
02.05.2023 06:20 10,4 C 10,0 C 6,7 C 95 % 1021,4 hPa 0,0 l/m 0 min 0 min 0 W/m 9,7 km/h (2 Bft) 97,87 %
02.05.2023 06:22 10,4 C 10,0 C 6,7 C 94 % 1021,3 hPa 0,0 l/m 0 min 0 min 0 W/m 9,7 km/h (2 Bft) 97,87 %
02.05.2023 06:24 10,4 C 10,0 C 6,7 C 95 % 1021,3 hPa 0,0 l/m 0 min 0 min 0 W/m 12,9 km/h (3 Bft) 95,74 %
02.05.2023 06:26 10,4 C 10,0 C 6,7 C 95 % 1021,4 hPa 0,0 l/m 0 min 0 min 0 W/m 6,4 km/h (2 Bft) 97,87 %
02.05.2023 06:28 10,4 C 10,0 C 6,7 C 95 % 1021,4 hPa 0,0 l/m 0 min 0 min 0 W/m 6,4 km/h (2 Bft) 97,87 %
02.05.2023 06:30 10,4 C 10,0 C 6,7 C 94 % 1021,4 hPa 0,0 l/m 0 min 0 min 0 W/m 9,7 km/h (2 Bft) 97,83 %
02.05.2023 06:32 10,3 C 10,0 C 6,7 C 94 % 1021,4 hPa 0,0 l/m 0 min 0 min 0 W/m 6,4 km/h (2 Bft) 95,74 %
02.05.2023 06:34 10,3 C 10,0 C 6,7 C 94 % 1021,5 hPa 0,0 l/m 0 min 0 min 0 W/m 12,9 km/h (3 Bft) 97,87 %
02.05.2023 06:36 10,3 C 10,0 C 6,7 C 94 % 1021,5 hPa 0,0 l/m 0 min 0 min 0 W/m 6,4 km/h (2 Bft) 97,87 %
02.05.2023 06:38 10,3 C 10,0 C 6,7 C 94 % 1021,5 hPa 0,0 l/m 0 min 0 min 0 W/m 12,9 km/h (3 Bft) 100,00 %
02.05.2023 06:40 10,3 C 10,0 C 6,7 C 94 % 1021,5 hPa 0,0 l/m 0 min 0 min 5 W/m 6,4 km/h (2 Bft) 97,87 %
02.05.2023 06:42 10,3 C 10,0 C 6,7 C 94 % 1021,6 hPa 0,0 l/m 0 min 0 min 7 W/m 9,7 km/h (2 Bft) 97,87 %
02.05.2023 06:44 10,3 C 10,0 C 6,7 C 94 % 1021,6 hPa 0,0 l/m 0 min 0 min 11 W/m 9,7 km/h (2 Bft) 100,00 %
02.05.2023 06:46 10,3 C 9,4 C 6,1 C 94 % 1021,7 hPa 0,0 l/m 0 min 0 min 12 W/m 9,7 km/h (2 Bft) 100,00 %
02.05.2023 06:48 10,3 C 9,4 C 6,1 C 94 % 1021,7 hPa 0,0 l/m 0 min 0 min 15 W/m 6,4 km/h (2 Bft) 100,00 %
02.05.2023 06:50 10,3 C 9,4 C 6,1 C 94 % 1021,7 hPa 0,0 l/m 0 min 0 min 15 W/m 9,7 km/h (2 Bft) 100,00 %
02.05.2023 06:52 10,3 C 9,4 C 6,1 C 94 % 1021,8 hPa 0,0 l/m 0 min 0 min 13 W/m 6,4 km/h (2 Bft) 100,00 %
02.05.2023 06:54 10,3 C 9,4 C 6,1 C 94 % 1021,8 hPa 0,0 l/m 0 min 0 min 10 W/m 9,7 km/h (2 Bft) 100,00 %
02.05.2023 06:56 10,3 C 9,4 C 6,1 C 94 % 1021,9 hPa 0,0 l/m 0 min 0 min 9 W/m 9,7 km/h (2 Bft) 100,00 %
02.05.2023 06:58 10,3 C 9,4 C 6,1 C 94 % 1021,9 hPa 0,0 l/m 0 min 0 min 9 W/m 12,9 km/h (3 Bft) 100,00 %
02.05.2023 07:00 10,3 C 9,4 C 6,1 C 94 % 1021,9 hPa 0,0 l/m 0 min 0 min 10 W/m 6,4 km/h (2 Bft) 100,00 %
02.05.2023 07:02 10,3 C 9,4 C 6,1 C 94 % 1021,9 hPa 0,0 l/m 0 min 0 min 13 W/m 6,4 km/h (2 Bft) 100,00 %
02.05.2023 07:04 10,3 C 9,4 C 6,7 C 94 % 1021,9 hPa 0,0 l/m 0 min 0 min 16 W/m 9,7 km/h (2 Bft) 100,00 %
02.05.2023 07:06 10,3 C 9,4 C 6,7 C 94 % 1022,0 hPa 0,0 l/m 0 min 0 min 15 W/m 6,4 km/h (2 Bft) 95,74 %
02.05.2023 07:08 10,3 C 9,4 C 6,7 C 94 % 1022,0 hPa 0,0 l/m 0 min 0 min 12 W/m 6,4 km/h (2 Bft) 100,00 %
02.05.2023 07:10 10,3 C 9,4 C 6,7 C 94 % 1022,0 hPa 0,0 l/m 0 min 0 min 14 W/m 9,7 km/h (2 Bft) 100,00 %
02.05.2023 07:12 10,3 C 9,4 C 6,7 C 94 % 1022,0 hPa 0,0 l/m 0 min 0 min 17 W/m 6,4 km/h (2 Bft) 100,00 %
02.05.2023 07:14 10,3 C 9,4 C 6,7 C 94 % 1022,0 hPa 0,0 l/m 0 min 0 min 17 W/m 9,7 km/h (2 Bft) 100,00 %
02.05.2023 07:16 10,3 C 9,4 C 6,7 C 94 % 1022,0 hPa 0,0 l/m 0 min 0 min 20 W/m 6,4 km/h (2 Bft) 95,74 %
02.05.2023 07:18 10,3 C 9,4 C 6,7 C 94 % 1022,1 hPa 0,0 l/m 0 min 0 min 19 W/m 9,7 km/h (2 Bft) 95,74 %
02.05.2023 07:20 10,3 C 9,4 C 6,7 C 95 % 1022,1 hPa 0,0 l/m 0 min 0 min 26 W/m 12,9 km/h (3 Bft) 97,87 %
02.05.2023 07:22 10,3 C 9,4 C 6,7 C 95 % 1022,1 hPa 0,0 l/m 0 min 0 min 34 W/m 9,7 km/h (2 Bft) 97,87 %
02.05.2023 07:24 10,3 C 9,4 C 6,7 C 95 % 1022,1 hPa 0,0 l/m 0 min 0 min 30 W/m 9,7 km/h (2 Bft) 97,87 %
02.05.2023 07:26 10,3 C 9,4 C 6,7 C 95 % 1022,2 hPa 0,0 l/m 0 min 0 min 26 W/m 6,4 km/h (2 Bft) 97,83 %
02.05.2023 07:28 10,3 C 9,4 C 6,7 C 95 % 1022,2 hPa 0,0 l/m 0 min 0 min 27 W/m 9,7 km/h (2 Bft) 95,74 %
02.05.2023 07:30 10,3 C 9,4 C 6,1 C 95 % 1022,2 hPa 0,0 l/m 0 min 0 min 30 W/m 12,9 km/h (3 Bft) 95,74 %
02.05.2023 07:32 10,3 C 9,4 C 6,1 C 95 % 1022,3 hPa 0,0 l/m 0 min 0 min 28 W/m 9,7 km/h (2 Bft) 53,19 %
02.05.2023 07:34 10,3 C 9,4 C 6,1 C 95 % 1022,4 hPa 0,0 l/m 0 min 0 min 24 W/m 12,9 km/h (3 Bft) 95,74 %
02.05.2023 07:36 10,3 C 9,4 C 6,1 C 95 % 1022,3 hPa 0,0 l/m 0 min 0 min 19 W/m 9,7 km/h (2 Bft) 93,62 %
02.05.2023 07:38 10,3 C 9,4 C 6,1 C 95 % 1022,4 hPa 0,0 l/m 0 min 0 min 14 W/m 12,9 km/h (3 Bft) 95,74 %
02.05.2023 07:40 10,3 C 9,4 C 6,1 C 95 % 1022,4 hPa 0,0 l/m 0 min 2 min 12 W/m 12,9 km/h (3 Bft) 95,65 %
02.05.2023 07:42 10,3 C 9,4 C 6,1 C 95 % 1022,4 hPa 0,0 l/m 0 min 2 min 16 W/m 9,7 km/h (2 Bft) 95,74 %
02.05.2023 07:44 10,3 C 9,4 C 6,1 C 95 % 1022,4 hPa 0,0 l/m 0 min 2 min 19 W/m 9,7 km/h (2 Bft) 95,74 %
02.05.2023 07:46 10,3 C 9,4 C 6,1 C 95 % 1022,4 hPa 0,0 l/m 0 min 0 min 30 W/m 6,4 km/h (2 Bft) 95,74 %
02.05.2023 07:48 10,3 C 9,4 C 6,1 C 95 % 1022,5 hPa 0,0 l/m 0 min 0 min 26 W/m 6,4 km/h (2 Bft) 95,74 %
02.05.2023 07:50 10,3 C 9,4 C 6,1 C 95 % 1022,6 hPa 0,0 l/m 0 min 0 min 19 W/m 12,9 km/h (3 Bft) 95,74 %
02.05.2023 07:52 10,3 C 9,4 C 6,1 C 95 % 1022,6 hPa 0,0 l/m 0 min 0 min 26 W/m 16,1 km/h (3 Bft) 91,49 %
02.05.2023 07:54 10,2 C 9,4 C 6,1 C 95 % 1022,6 hPa 0,0 l/m 0 min 0 min 37 W/m 16,1 km/h (3 Bft) 95,65 %
02.05.2023 07:56 10,2 C 9,4 C 6,1 C 95 % 1022,6 hPa 0,0 l/m 0 min 0 min 51 W/m 19,3 km/h (3 Bft) 95,74 %
02.05.2023 07:58 10,1 C 9,4 C 6,1 C 95 % 1022,6 hPa 0,0 l/m 0 min 0 min 61 W/m 12,9 km/h (3 Bft) 95,74 %
02.05.2023 08:00 10,1 C 9,4 C 6,1 C 95 % 1022,7 hPa 0,0 l/m 0 min 0 min 58 W/m 16,1 km/h (3 Bft) 97,87 %
02.05.2023 08:02 10,1 C 9,4 C 6,1 C 95 % 1022,7 hPa 0,0 l/m 0 min 0 min 59 W/m 19,3 km/h (3 Bft) 97,87 %
02.05.2023 08:04 10,1 C 9,4 C 6,1 C 95 % 1022,8 hPa 0,0 l/m 0 min 0 min 61 W/m 12,9 km/h (3 Bft) 97,87 %
02.05.2023 08:06 10,0 C 9,4 C 6,1 C 95 % 1022,8 hPa 0,0 l/m 0 min 0 min 58 W/m 19,3 km/h (3 Bft) 100,00 %
02.05.2023 08:08 10,0 C 10,0 C 6,1 C 95 % 1022,8 hPa 0,0 l/m 0 min 0 min 61 W/m 19,3 km/h (3 Bft) 97,87 %
02.05.2023 08:10 10,0 C 10,0 C 6,1 C 95 % 1022,8 hPa 0,0 l/m 0 min 0 min 55 W/m 19,3 km/h (3 Bft) 100,00 %
02.05.2023 08:12 10,0 C 10,0 C 6,1 C 95 % 1022,9 hPa 0,0 l/m 0 min 0 min 52 W/m 25,7 km/h (4 Bft) 100,00 %
02.05.2023 08:14 9,9 C 10,0 C 6,1 C 95 % 1022,9 hPa 0,0 l/m 0 min 0 min 65 W/m 12,9 km/h (3 Bft) 100,00 %
02.05.2023 08:16 9,9 C 10,0 C 6,1 C 95 % 1023,0 hPa 0,0 l/m 0 min 0 min 89 W/m 12,9 km/h (3 Bft) 97,83 %
02.05.2023 08:18 9,9 C 10,0 C 6,7 C 95 % 1023,1 hPa 0,0 l/m 0 min 0 min 109 W/m 12,9 km/h (3 Bft) 100,00 %
02.05.2023 08:20 10,0 C 10,0 C 6,7 C 95 % 1023,0 hPa 0,0 l/m 0 min 0 min 111 W/m 12,9 km/h (3 Bft) 100,00 %
02.05.2023 08:22 10,0 C 10,6 C 6,7 C 95 % 1023,1 hPa 0,0 l/m 0 min 0 min 123 W/m 16,1 km/h (3 Bft) 97,87 %
02.05.2023 08:24 10,1 C 10,6 C 6,7 C 95 % 1023,0 hPa 0,0 l/m 0 min 0 min 120 W/m 16,1 km/h (3 Bft) 100,00 %
02.05.2023 08:26 10,1 C 10,6 C 6,7 C 95 % 1023,1 hPa 0,0 l/m 0 min 0 min 108 W/m 12,9 km/h (3 Bft) 100,00 %
02.05.2023 08:28 10,1 C 10,6 C 6,7 C 95 % 1023,1 hPa 0,0 l/m 0 min 0 min 109 W/m 16,1 km/h (3 Bft) 100,00 %
02.05.2023 08:30 10,1 C 10,6 C 7,2 C 95 % 1023,2 hPa 0,0 l/m 0 min 0 min 102 W/m 22,5 km/h (4 Bft) 100,00 %
02.05.2023 08:32 10,2 C 10,6 C 6,7 C 95 % 1023,2 hPa 0,0 l/m 0 min 0 min 102 W/m 19,3 km/h (3 Bft) 97,87 %
02.05.2023 08:34 10,1 C 10,6 C 6,7 C 95 % 1023,2 hPa 0,0 l/m 0 min 0 min 105 W/m 16,1 km/h (3 Bft) 97,87 %
02.05.2023 08:36 10,2 C 10,6 C 6,7 C 95 % 1023,3 hPa 0,0 l/m 0 min 0 min 112 W/m 19,3 km/h (3 Bft) 97,87 %
02.05.2023 08:38 10,2 C 10,6 C 7,2 C 95 % 1023,3 hPa 0,0 l/m 0 min 0 min 129 W/m 12,9 km/h (3 Bft) 97,87 %
02.05.2023 08:40 10,2 C 10,6 C 7,2 C 95 % 1023,3 hPa 0,0 l/m 0 min 0 min 129 W/m 12,9 km/h (3 Bft) 97,87 %
02.05.2023 08:42 10,2 C 10,6 C 7,2 C 95 % 1023,3 hPa 0,0 l/m 0 min 0 min 131 W/m 16,1 km/h (3 Bft) 93,62 %
02.05.2023 08:44 10,2 C 10,6 C 7,2 C 95 % 1023,3 hPa 0,0 l/m 0 min 0 min 123 W/m 12,9 km/h (3 Bft) 97,83 %
02.05.2023 08:46 10,3 C 10,6 C 7,2 C 94 % 1023,4 hPa 0,0 l/m 0 min 0 min 129 W/m 22,5 km/h (4 Bft) 97,87 %
02.05.2023 08:48 10,3 C 10,6 C 7,2 C 94 % 1023,4 hPa 0,0 l/m 0 min 0 min 143 W/m 12,9 km/h (3 Bft) 97,87 %
02.05.2023 08:50 10,3 C 11,1 C 7,2 C 94 % 1023,4 hPa 0,0 l/m 0 min 0 min 152 W/m 9,7 km/h (2 Bft) 95,74 %
02.05.2023 08:52 10,4 C 11,1 C 7,2 C 94 % 1023,5 hPa 0,0 l/m 0 min 0 min 133 W/m 16,1 km/h (3 Bft) 97,87 %
02.05.2023 08:54 10,4 C 11,1 C 7,2 C 94 % 1023,5 hPa 0,0 l/m 0 min 0 min 121 W/m 19,3 km/h (3 Bft) 97,87 %
02.05.2023 08:56 10,4 C 10,6 C 7,2 C 94 % 1023,5 hPa 0,0 l/m 0 min 0 min 94 W/m 19,3 km/h (3 Bft) 95,74 %
02.05.2023 08:58 10,4 C 10,6 C 7,2 C 93 % 1023,6 hPa 0,0 l/m 0 min 0 min 78 W/m 25,7 km/h (4 Bft) 97,83 %
02.05.2023 09:00 10,4 C 10,6 C 7,2 C 93 % 1023,6 hPa 0,0 l/m 0 min 0 min 93 W/m 19,3 km/h (3 Bft) 95,74 %
02.05.2023 09:02 10,4 C 10,6 C 7,2 C 93 % 1023,6 hPa 0,0 l/m 0 min 0 min 100 W/m 19,3 km/h (3 Bft) 97,87 %
02.05.2023 09:04 10,4 C 10,6 C 7,2 C 93 % 1023,6 hPa 0,0 l/m 0 min 0 min 113 W/m 22,5 km/h (4 Bft) 97,56 %
02.05.2023 09:06 10,4 C 10,6 C 7,2 C 92 % 1023,7 hPa 0,0 l/m 0 min 0 min 119 W/m 16,1 km/h (3 Bft) 97,87 %
02.05.2023 09:08 10,4 C 10,6 C 7,2 C 92 % 1023,7 hPa 0,0 l/m 0 min 0 min 119 W/m 22,5 km/h (4 Bft) 97,87 %
02.05.2023 09:10 10,4 C 10,6 C 7,2 C 92 % 1023,7 hPa 0,0 l/m 0 min 0 min 129 W/m 16,1 km/h (3 Bft) 97,87 %
02.05.2023 09:12 10,5 C 10,6 C 7,2 C 92 % 1023,8 hPa 0,0 l/m 0 min 0 min 146 W/m 16,1 km/h (3 Bft) 93,62 %
02.05.2023 09:14 10,5 C 10,6 C 7,2 C 91 % 1023,8 hPa 0,0 l/m 0 min 0 min 148 W/m 16,1 km/h (3 Bft) 97,87 %
02.05.2023 09:16 10,5 C 10,6 C 7,2 C 91 % 1023,8 hPa 0,0 l/m 0 min 0 min 146 W/m 19,3 km/h (3 Bft) 95,65 %
02.05.2023 09:18 10,5 C 10,6 C 7,2 C 91 % 1023,8 hPa 0,0 l/m 0 min 0 min 145 W/m 19,3 km/h (3 Bft) 93,62 %
02.05.2023 09:20 10,5 C 10,6 C 7,2 C 91 % 1023,8 hPa 0,0 l/m 0 min 0 min 143 W/m 22,5 km/h (4 Bft) 97,87 %
02.05.2023 09:22 10,6 C 10,6 C 7,2 C 90 % 1023,8 hPa 0,0 l/m 0 min 0 min 152 W/m 16,1 km/h (3 Bft) 93,62 %
02.05.2023 09:24 10,6 C 11,1 C 7,2 C 90 % 1023,8 hPa 0,0 l/m 0 min 0 min 226 W/m 9,7 km/h (2 Bft) 97,87 %
02.05.2023 09:26 10,6 C 11,7 C 7,8 C 90 % 1023,9 hPa 0,0 l/m 2 min 0 min 260 W/m 12,9 km/h (3 Bft) 97,87 %
02.05.2023 09:28 10,7 C 11,7 C 7,8 C 90 % 1023,9 hPa 0,0 l/m 0 min 0 min 192 W/m 12,9 km/h (3 Bft) 97,87 %
02.05.2023 09:30 10,7 C 11,7 C 7,8 C 90 % 1023,9 hPa 0,0 l/m 0 min 0 min 180 W/m 12,9 km/h (3 Bft) 97,87 %
02.05.2023 09:32 10,8 C 11,7 C 7,8 C 90 % 1023,9 hPa 0,0 l/m 0 min 0 min 183 W/m 22,5 km/h (4 Bft) 95,65 %
02.05.2023 09:34 10,8 C 11,1 C 7,8 C 89 % 1023,9 hPa 0,0 l/m 0 min 0 min 129 W/m 12,9 km/h (3 Bft) 97,87 %
02.05.2023 09:36 10,8 C 11,1 C 7,2 C 89 % 1024,1 hPa 0,0 l/m 0 min 0 min 83 W/m 22,5 km/h (4 Bft) 97,87 %
02.05.2023 09:38 10,8 C 10,6 C 7,2 C 88 % 1024,1 hPa 0,0 l/m 0 min 0 min 51 W/m 22,5 km/h (4 Bft) 100,00 %
02.05.2023 09:40 10,7 C 10,6 C 7,2 C 88 % 1024,1 hPa 0,0 l/m 0 min 0 min 45 W/m 22,5 km/h (4 Bft) 97,87 %
02.05.2023 09:42 10,6 C 10,0 C 6,7 C 87 % 1024,2 hPa 0,0 l/m 0 min 0 min 44 W/m 16,1 km/h (3 Bft) 97,87 %
02.05.2023 09:44 10,5 C 10,0 C 6,7 C 86 % 1024,3 hPa 0,0 l/m 0 min 0 min 48 W/m 22,5 km/h (4 Bft) 97,83 %
02.05.2023 09:46 10,4 C 10,0 C 6,7 C 86 % 1024,3 hPa 0,0 l/m 0 min 0 min 54 W/m 16,1 km/h (3 Bft) 97,87 %
02.05.2023 09:48 10,4 C 10,0 C 6,7 C 85 % 1024,3 hPa 0,0 l/m 0 min 0 min 56 W/m 19,3 km/h (3 Bft) 97,87 %
02.05.2023 09:50 10,3 C 9,4 C 6,7 C 85 % 1024,3 hPa 0,0 l/m 0 min 0 min 53 W/m 22,5 km/h (4 Bft) 97,87 %
02.05.2023 09:52 10,2 C 9,4 C 6,7 C 85 % 1024,3 hPa 0,0 l/m 0 min 0 min 53 W/m 9,7 km/h (2 Bft) 97,87 %
02.05.2023 09:54 10,2 C 9,4 C 6,1 C 85 % 1024,4 hPa 0,0 l/m 0 min 0 min 55 W/m 19,3 km/h (3 Bft) 95,74 %
02.05.2023 09:56 10,2 C 10,0 C 6,1 C 85 % 1024,4 hPa 0,0 l/m 0 min 0 min 63 W/m 12,9 km/h (3 Bft) 97,83 %
02.05.2023 09:58 10,2 C 10,0 C 6,1 C 85 % 1024,4 hPa 0,0 l/m 0 min 0 min 85 W/m 12,9 km/h (3 Bft) 100,00 %
02.05.2023 10:00 10,1 C 10,0 C 6,1 C 85 % 1024,4 hPa 0,0 l/m 0 min 0 min 130 W/m 16,1 km/h (3 Bft) 100,00 %
02.05.2023 10:02 10,1 C 10,0 C 6,7 C 85 % 1024,4 hPa 0,0 l/m 0 min 0 min 175 W/m 16,1 km/h (3 Bft) 97,87 %
02.05.2023 10:04 10,1 C 10,6 C 6,7 C 85 % 1024,4 hPa 0,0 l/m 0 min 0 min 213 W/m 16,1 km/h (3 Bft) 100,00 %
02.05.2023 10:06 10,2 C 10,6 C 6,7 C 85 % 1024,4 hPa 0,0 l/m 0 min 0 min 224 W/m 12,9 km/h (3 Bft) 100,00 %
02.05.2023 10:08 10,2 C 10,6 C 7,2 C 85 % 1024,4 hPa 0,0 l/m 0 min 0 min 212 W/m 19,3 km/h (3 Bft) 97,44 %
02.05.2023 10:10 10,3 C 10,6 C 7,2 C 85 % 1024,4 hPa 0,0 l/m 0 min 0 min 178 W/m 16,1 km/h (3 Bft) 98,00 %
02.05.2023 10:12 10,3 C 10,6 C 7,2 C 85 % 1024,5 hPa 0,0 l/m 0 min 0 min 153 W/m 19,3 km/h (3 Bft) 95,65 %
02.05.2023 10:14 10,3 C 10,6 C 7,2 C 85 % 1024,5 hPa 0,0 l/m 0 min 0 min 142 W/m 12,9 km/h (3 Bft) 95,74 %
02.05.2023 10:16 10,4 C 10,6 C 6,7 C 85 % 1024,5 hPa 0,0 l/m 0 min 0 min 145 W/m 25,7 km/h (4 Bft) 97,87 %
02.05.2023 10:18 10,4 C 10,6 C 7,2 C 85 % 1024,6 hPa 0,0 l/m 0 min 0 min 143 W/m 12,9 km/h (3 Bft) 97,87 %
02.05.2023 10:20 10,4 C 10,6 C 7,2 C 85 % 1024,6 hPa 0,0 l/m 0 min 0 min 139 W/m 16,1 km/h (3 Bft) 97,87 %
02.05.2023 10:22 10,4 C 10,6 C 6,7 C 85 % 1024,7 hPa 0,0 l/m 0 min 0 min 141 W/m 16,1 km/h (3 Bft) 97,87 %
02.05.2023 10:24 10,4 C 10,6 C 6,7 C 85 % 1024,7 hPa 0,0 l/m 0 min 0 min 153 W/m 16,1 km/h (3 Bft) 97,83 %
02.05.2023 10:26 10,4 C 10,6 C 7,2 C 85 % 1024,7 hPa 0,0 l/m 0 min 0 min 167 W/m 9,7 km/h (2 Bft) 97,87 %
02.05.2023 10:28 10,5 C 10,6 C 7,2 C 85 % 1024,7 hPa 0,0 l/m 0 min 0 min 174 W/m 12,9 km/h (3 Bft) 93,62 %
02.05.2023 10:30 10,5 C 11,1 C 7,2 C 85 % 1024,7 hPa 0,0 l/m 0 min 0 min 169 W/m 19,3 km/h (3 Bft) 97,87 %
02.05.2023 10:32 10,6 C 11,1 C 7,2 C 85 % 1024,8 hPa 0,0 l/m 0 min 0 min 162 W/m 12,9 km/h (3 Bft) 97,87 %
02.05.2023 10:34 10,6 C 11,1 C 7,2 C 85 % 1024,9 hPa 0,0 l/m 0 min 0 min 159 W/m 16,1 km/h (3 Bft) 97,87 %
02.05.2023 10:36 10,6 C 11,1 C 7,2 C 85 % 1024,9 hPa 0,0 l/m 0 min 0 min 159 W/m 9,7 km/h (2 Bft) 97,87 %
02.05.2023 10:38 10,6 C 11,1 C 7,2 C 85 % 1024,9 hPa 0,0 l/m 0 min 0 min 169 W/m 3,2 km/h (1 Bft) 97,83 %
02.05.2023 10:40 10,6 C 11,1 C 7,2 C 85 % 1024,9 hPa 0,0 l/m 0 min 0 min 186 W/m 9,7 km/h (2 Bft) 97,87 %
02.05.2023 10:42 10,7 C 11,1 C 7,2 C 85 % 1024,9 hPa 0,0 l/m 0 min 0 min 204 W/m 16,1 km/h (3 Bft) 95,74 %
02.05.2023 10:44 10,7 C 11,1 C 7,2 C 85 % 1024,9 hPa 0,0 l/m 0 min 0 min 256 W/m 12,9 km/h (3 Bft) 97,87 %
02.05.2023 10:46 10,7 C 11,7 C 7,8 C 85 % 1025,0 hPa 0,0 l/m 0 min 0 min 275 W/m 16,1 km/h (3 Bft) 96,23 %
02.05.2023 10:48 10,7 C 11,7 C 7,8 C 84 % 1025,0 hPa 0,0 l/m 0 min 0 min 255 W/m 19,3 km/h (3 Bft) 97,44 %
02.05.2023 10:50 10,7 C 11,7 C 7,8 C 84 % 1025,0 hPa 0,0 l/m 0 min 0 min 226 W/m 12,9 km/h (3 Bft) 97,92 %
02.05.2023 10:52 10,7 C 11,7 C 7,2 C 83 % 1025,0 hPa 0,0 l/m 0 min 0 min 212 W/m 16,1 km/h (3 Bft) 95,74 %
02.05.2023 10:54 10,7 C 11,7 C 7,2 C 82 % 1025,1 hPa 0,0 l/m 0 min 0 min 202 W/m 22,5 km/h (4 Bft) 95,74 %
02.05.2023 10:56 10,7 C 11,1 C 7,2 C 81 % 1025,2 hPa 0,0 l/m 0 min 0 min 189 W/m 16,1 km/h (3 Bft) 100,00 %
02.05.2023 10:58 10,7 C 11,1 C 7,2 C 81 % 1025,1 hPa 0,0 l/m 0 min 0 min 186 W/m 16,1 km/h (3 Bft) 100,00 %
02.05.2023 11:00 10,7 C 11,1 C 7,2 C 81 % 1025,1 hPa 0,0 l/m 0 min 0 min 189 W/m 22,5 km/h (4 Bft) 100,00 %
02.05.2023 11:02 10,7 C 10,6 C 7,2 C 80 % 1025,2 hPa 0,0 l/m 0 min 0 min 196 W/m 19,3 km/h (3 Bft) 100,00 %
02.05.2023 11:04 10,7 C 11,1 C 7,2 C 80 % 1025,2 hPa 0,0 l/m 0 min 0 min 206 W/m 12,9 km/h (3 Bft) 100,00 %
02.05.2023 11:06 10,7 C 11,1 C 7,2 C 80 % 1025,2 hPa 0,0 l/m 0 min 0 min 211 W/m 22,5 km/h (4 Bft) 100,00 %
02.05.2023 11:08 10,6 C 11,1 C 7,2 C 80 % 1025,3 hPa 0,0 l/m 0 min 0 min 212 W/m 12,9 km/h (3 Bft) 100,00 %
02.05.2023 11:10 10,6 C 10,6 C 7,2 C 80 % 1025,3 hPa 0,0 l/m 0 min 0 min 217 W/m 22,5 km/h (4 Bft) 100,00 %
02.05.2023 11:12 10,7 C 11,1 C 7,2 C 80 % 1025,3 hPa 0,0 l/m 0 min 0 min 210 W/m 16,1 km/h (3 Bft) 100,00 %
02.05.2023 11:14 10,7 C 11,1 C 7,2 C 80 % 1025,3 hPa 0,0 l/m 0 min 0 min 211 W/m 12,9 km/h (3 Bft) 100,00 %
02.05.2023 11:16 10,7 C 11,1 C 7,2 C 80 % 1025,4 hPa 0,0 l/m 0 min 0 min 220 W/m 9,7 km/h (2 Bft) 97,87 %
02.05.2023 11:18 10,7 C 11,1 C 7,2 C 80 % 1025,4 hPa 0,0 l/m 0 min 0 min 236 W/m 16,1 km/h (3 Bft) 97,83 %
02.05.2023 11:20 10,8 C 11,1 C 7,8 C 80 % 1025,4 hPa 0,0 l/m 0 min 0 min 228 W/m 12,9 km/h (3 Bft) 100,00 %
02.05.2023 11:22 10,8 C 11,7 C 7,8 C 80 % 1025,4 hPa 0,0 l/m 0 min 0 min 202 W/m 12,9 km/h (3 Bft) 95,74 %
02.05.2023 11:24 10,8 C 11,1 C 7,2 C 81 % 1025,4 hPa 0,0 l/m 0 min 0 min 182 W/m 16,1 km/h (3 Bft) 95,74 %
02.05.2023 11:26 10,8 C 11,1 C 7,2 C 81 % 1025,4 hPa 0,0 l/m 0 min 0 min 182 W/m 19,3 km/h (3 Bft) 97,87 %
02.05.2023 11:28 10,8 C 11,1 C 7,2 C 81 % 1025,5 hPa 0,0 l/m 0 min 0 min 175 W/m 9,7 km/h (2 Bft) 93,62 %
02.05.2023 11:30 10,8 C 11,1 C 7,2 C 81 % 1025,5 hPa 0,0 l/m 0 min 0 min 186 W/m 16,1 km/h (3 Bft) 97,87 %
02.05.2023 11:32 10,8 C 11,1 C 7,2 C 81 % 1025,5 hPa 0,0 l/m 0 min 0 min 242 W/m 12,9 km/h (3 Bft) 97,83 %
02.05.2023 11:34 10,8 C 11,1 C 7,2 C 81 % 1025,5 hPa 0,0 l/m 0 min 0 min 252 W/m 16,1 km/h (3 Bft) 97,87 %
02.05.2023 11:36 10,9 C 11,7 C 7,8 C 82 % 1025,5 hPa 0,0 l/m 0 min 0 min 258 W/m 12,9 km/h (3 Bft) 93,62 %
02.05.2023 11:38 10,9 C 11,7 C 7,8 C 81 % 1025,6 hPa 0,0 l/m 0 min 0 min 256 W/m 16,1 km/h (3 Bft) 97,87 %
02.05.2023 11:40 10,9 C 12,2 C 7,8 C 81 % 1025,6 hPa 0,0 l/m 0 min 0 min 288 W/m 12,9 km/h (3 Bft) 95,74 %
02.05.2023 11:42 11,0 C 12,2 C 7,8 C 81 % 1025,6 hPa 0,0 l/m 0 min 0 min 303 W/m 12,9 km/h (3 Bft) 93,62 %
02.05.2023 11:44 11,1 C 12,2 C 7,8 C 81 % 1025,7 hPa 0,0 l/m 0 min 0 min 311 W/m 12,9 km/h (3 Bft) 95,74 %
02.05.2023 11:46 11,1 C 12,2 C 8,3 C 81 % 1025,6 hPa 0,0 l/m 0 min 0 min 346 W/m 6,4 km/h (2 Bft) 95,65 %
02.05.2023 11:48 11,2 C 12,2 C 8,3 C 80 % 1025,7 hPa 0,0 l/m 0 min 0 min 288 W/m 12,9 km/h (3 Bft) 93,62 %
02.05.2023 11:50 11,2 C 12,8 C 8,3 C 80 % 1025,8 hPa 0,0 l/m 0 min 0 min 331 W/m 19,3 km/h (3 Bft) 95,74 %
02.05.2023 11:52 11,3 C 12,2 C 8,3 C 79 % 1025,7 hPa 0,0 l/m 2 min 0 min 384 W/m 9,7 km/h (2 Bft) 97,87 %
02.05.2023 11:54 11,4 C 13,9 C 8,9 C 79 % 1025,8 hPa 0,0 l/m 2 min 0 min 460 W/m 12,9 km/h (3 Bft) 95,74 %
02.05.2023 11:56 11,4 C 13,3 C 9,4 C 78 % 1025,8 hPa 0,0 l/m 2 min 0 min 396 W/m 19,3 km/h (3 Bft) 95,74 %
02.05.2023 11:58 11,6 C 13,9 C 9,4 C 77 % 1025,8 hPa 0,0 l/m 2 min 0 min 401 W/m 9,7 km/h (2 Bft) 95,65 %
02.05.2023 12:00 11,6 C 13,9 C 9,4 C 76 % 1025,8 hPa 0,0 l/m 2 min 0 min 386 W/m 19,3 km/h (3 Bft) 95,74 %
02.05.2023 12:02 11,7 C 15,6 C 10,0 C 76 % 1025,8 hPa 0,0 l/m 2 min 0 min 400 W/m 16,1 km/h (3 Bft) 93,62 %
02.05.2023 12:04 11,8 C 15,6 C 10,0 C 76 % 1025,8 hPa 0,0 l/m 2 min 0 min 457 W/m 16,1 km/h (3 Bft) 97,96 %
02.05.2023 12:07 12,0 C 15,6 C 11,1 C 75 % 1025,8 hPa 0,0 l/m 3 min 0 min 662 W/m 6,4 km/h (2 Bft) 98,57 %
02.05.2023 12:08 12,1 C 16,7 C 11,1 C 76 % 1025,8 hPa 0,0 l/m 1 min 0 min 438 W/m 9,7 km/h (2 Bft) 89,47 %
02.05.2023 12:12 12,4 C 15,6 C 10,6 C 74 % 1025,8 hPa 0,0 l/m 4 min 0 min 382 W/m 22,5 km/h (4 Bft) 98,15 %
02.05.2023 12:14 12,5 C 16,1 C 11,1 C 74 % 1025,8 hPa 0,0 l/m 2 min 0 min 412 W/m 12,9 km/h (3 Bft) 97,87 %
02.05.2023 12:16 12,6 C 16,7 C 11,7 C 73 % 1025,9 hPa 0,0 l/m 2 min 0 min 450 W/m 25,7 km/h (4 Bft) 97,87 %
02.05.2023 12:18 12,7 C 15,0 C 10,6 C 73 % 1026,0 hPa 0,0 l/m 2 min 0 min 389 W/m 25,7 km/h (4 Bft) 97,87 %
02.05.2023 12:20 12,7 C 14,4 C 9,4 C 74 % 1026,0 hPa 0,0 l/m 0 min 0 min 238 W/m 32,2 km/h (5 Bft) 95,74 %
02.05.2023 12:22 12,4 C 12,8 C 9,4 C 73 % 1026,0 hPa 0,0 l/m 0 min 0 min 219 W/m 16,1 km/h (3 Bft) 95,74 %
02.05.2023 12:24 12,2 C 12,2 C 8,9 C 72 % 1026,0 hPa 0,0 l/m 0 min 0 min 228 W/m 19,3 km/h (3 Bft) 97,83 %
02.05.2023 12:26 12,0 C 12,2 C 8,3 C 72 % 1026,0 hPa 0,0 l/m 0 min 0 min 215 W/m 25,7 km/h (4 Bft) 95,74 %
02.05.2023 12:28 11,9 C 13,3 C 8,3 C 72 % 1026,0 hPa 0,0 l/m 0 min 0 min 238 W/m 16,1 km/h (3 Bft) 97,87 %
02.05.2023 12:30 11,8 C 16,1 C 10,6 C 73 % 1026,0 hPa 0,0 l/m 2 min 0 min 555 W/m 22,5 km/h (4 Bft) 95,74 %
02.05.2023 12:32 11,9 C 17,2 C 11,7 C 73 % 1026,0 hPa 0,0 l/m 2 min 0 min 874 W/m 25,7 km/h (4 Bft) 95,74 %
02.05.2023 12:34 12,1 C 18,9 C 12,8 C 72 % 1026,1 hPa 0,0 l/m 2 min 0 min 907 W/m 22,5 km/h (4 Bft) 95,74 %
02.05.2023 12:36 12,2 C 18,9 C 13,3 C 71 % 1026,0 hPa 0,0 l/m 2 min 0 min 910 W/m 22,5 km/h (4 Bft) 95,74 %
02.05.2023 12:38 12,3 C 18,9 C 13,3 C 70 % 1026,0 hPa 0,0 l/m 2 min 0 min 733 W/m 19,3 km/h (3 Bft) 95,65 %
02.05.2023 12:40 12,6 C 20,6 C 13,9 C 71 % 1026,0 hPa 0,0 l/m 2 min 0 min 792 W/m 19,3 km/h (3 Bft) 95,74 %
02.05.2023 12:42 12,7 C 21,7 C 14,4 C 71 % 1026,0 hPa 0,0 l/m 2 min 0 min 908 W/m 25,7 km/h (4 Bft) 95,74 %
02.05.2023 12:44 12,9 C 21,7 C 14,4 C 71 % 1026,0 hPa 0,0 l/m 2 min 0 min 905 W/m 22,5 km/h (4 Bft) 95,74 %
02.05.2023 12:46 13,1 C 20,6 C 14,4 C 69 % 1026,1 hPa 0,0 l/m 2 min 0 min 882 W/m 25,7 km/h (4 Bft) 95,74 %
02.05.2023 12:48 13,1 C 20,0 C 14,4 C 69 % 1026,0 hPa 0,0 l/m 2 min 0 min 794 W/m 22,5 km/h (4 Bft) 93,62 %
02.05.2023 12:50 13,1 C 21,1 C 13,3 C 69 % 1026,1 hPa 0,0 l/m 2 min 0 min 909 W/m 22,5 km/h (4 Bft) 93,48 %
02.05.2023 12:52 13,1 C 20,6 C 12,8 C 68 % 1026,1 hPa 0,0 l/m 2 min 0 min 912 W/m 22,5 km/h (4 Bft) 95,74 %
02.05.2023 12:54 13,1 C 20,6 C 11,7 C 68 % 1026,1 hPa 0,0 l/m 2 min 0 min 905 W/m 22,5 km/h (4 Bft) 95,74 %
02.05.2023 12:56 13,2 C 21,1 C 11,1 C 68 % 1026,0 hPa 0,0 l/m 2 min 0 min 931 W/m 35,4 km/h (5 Bft) 93,62 %
02.05.2023 12:58 13,2 C 21,7 C 10,6 C 68 % 1026,0 hPa 0,0 l/m 2 min 0 min 972 W/m 35,4 km/h (5 Bft) 97,87 %
02.05.2023 13:00 13,3 C 21,7 C 10,0 C 68 % 1026,0 hPa 0,0 l/m 2 min 0 min 980 W/m 19,3 km/h (3 Bft) 95,74 %
02.05.2023 13:02 13,3 C 21,1 C 10,0 C 68 % 1026,1 hPa 0,0 l/m 2 min 0 min 976 W/m 16,1 km/h (3 Bft) 95,74 %
02.05.2023 13:04 13,3 C 19,4 C 10,0 C 68 % 1026,0 hPa 0,0 l/m 2 min 0 min 760 W/m 19,3 km/h (3 Bft) 95,74 %
02.05.2023 13:06 13,4 C 21,7 C 10,0 C 69 % 1026,1 hPa 0,0 l/m 2 min 0 min 737 W/m 16,1 km/h (3 Bft) 98,28 %
02.05.2023 13:08 13,5 C 20,0 C 10,6 C 68 % 1026,0 hPa 0,0 l/m 2 min 0 min 1061 W/m 16,1 km/h (3 Bft) 94,74 %
02.05.2023 13:10 13,4 C 18,9 C 10,6 C 65 % 1026,1 hPa 0,0 l/m 2 min 0 min 462 W/m 22,5 km/h (4 Bft) 97,87 %
02.05.2023 13:12 13,5 C 19,4 C 10,6 C 65 % 1026,1 hPa 0,0 l/m 2 min 0 min 1091 W/m 19,3 km/h (3 Bft) 95,74 %
02.05.2023 13:14 13,6 C 18,3 C 11,1 C 65 % 1026,1 hPa 0,0 l/m 2 min 0 min 958 W/m 16,1 km/h (3 Bft) 95,74 %
02.05.2023 13:16 13,6 C 16,7 C 10,6 C 65 % 1026,1 hPa 0,0 l/m 0 min 0 min 358 W/m 19,3 km/h (3 Bft) 97,87 %
02.05.2023 13:18 13,6 C 16,1 C 10,0 C 65 % 1026,2 hPa 0,0 l/m 0 min 0 min 346 W/m 19,3 km/h (3 Bft) 93,48 %
02.05.2023 13:20 13,4 C 15,6 C 10,0 C 64 % 1026,1 hPa 0,0 l/m 0 min 0 min 370 W/m 16,1 km/h (3 Bft) 95,74 %
02.05.2023 13:22 13,3 C 16,1 C 10,0 C 64 % 1026,1 hPa 0,0 l/m 2 min 0 min 469 W/m 16,1 km/h (3 Bft) 95,74 %
02.05.2023 13:24 13,3 C 16,7 C 10,0 C 65 % 1026,1 hPa 0,0 l/m 2 min 0 min 580 W/m 16,1 km/h (3 Bft) 95,74 %
02.05.2023 13:26 13,3 C 18,3 C 10,0 C 65 % 1026,0 hPa 0,0 l/m 2 min 0 min 580 W/m 16,1 km/h (3 Bft) 95,74 %
02.05.2023 13:28 13,4 C 20,0 C 10,6 C 65 % 1026,0 hPa 0,0 l/m 2 min 0 min 966 W/m 9,7 km/h (2 Bft) 95,74 %
02.05.2023 13:30 13,5 C 18,3 C 10,6 C 64 % 1026,1 hPa 0,0 l/m 2 min 0 min 1016 W/m 29,0 km/h (5 Bft) 95,74 %
02.05.2023 13:32 13,5 C 18,9 C 11,1 C 63 % 1026,0 hPa 0,0 l/m 2 min 0 min 1016 W/m 16,1 km/h (3 Bft) 93,48 %
02.05.2023 13:34 13,6 C 20,6 C 12,2 C 63 % 1026,0 hPa 0,0 l/m 2 min 0 min 824 W/m 25,7 km/h (4 Bft) 95,74 %
02.05.2023 13:36 13,7 C 21,7 C 13,9 C 62 % 1026,0 hPa 0,0 l/m 2 min 0 min 1019 W/m 25,7 km/h (4 Bft) 100,00 %
02.05.2023 13:38 13,9 C 22,8 C 15,0 C 62 % 1026,0 hPa 0,0 l/m 2 min 0 min 1027 W/m 19,3 km/h (3 Bft) 95,74 %
02.05.2023 13:40 14,1 C 22,8 C 15,6 C 61 % 1026,0 hPa 0,0 l/m 2 min 0 min 1035 W/m 29,0 km/h (5 Bft) 97,87 %
02.05.2023 13:42 14,2 C 22,8 C 16,1 C 60 % 1026,0 hPa 0,0 l/m 2 min 0 min 1074 W/m 9,7 km/h (2 Bft) 97,87 %
02.05.2023 13:44 14,3 C 22,8 C 15,6 C 62 % 1026,1 hPa 0,0 l/m 2 min 0 min 814 W/m 19,3 km/h (3 Bft) 97,87 %
02.05.2023 13:46 14,3 C 22,8 C 13,9 C 63 % 1026,1 hPa 0,0 l/m 2 min 0 min 814 W/m 22,5 km/h (4 Bft) 97,83 %
02.05.2023 13:48 14,3 C 22,2 C 13,3 C 63 % 1026,1 hPa 0,0 l/m 2 min 0 min 813 W/m 22,5 km/h (4 Bft) 95,74 %
02.05.2023 13:50 14,4 C 18,9 C 12,2 C 63 % 1026,2 hPa 0,0 l/m 2 min 0 min 630 W/m 29,0 km/h (5 Bft) 97,87 %
02.05.2023 13:52 14,3 C 17,2 C 11,7 C 63 % 1026,2 hPa 0,0 l/m 2 min 0 min 404 W/m 16,1 km/h (3 Bft) 97,87 %
02.05.2023 13:54 14,3 C 16,1 C 11,1 C 63 % 1026,3 hPa 0,0 l/m 2 min 0 min 401 W/m 29,0 km/h (5 Bft) 95,74 %
02.05.2023 13:56 14,0 C 15,0 C 10,6 C 63 % 1026,3 hPa 0,0 l/m 2 min 0 min 397 W/m 32,2 km/h (5 Bft) 95,74 %
02.05.2023 13:58 13,8 C 14,4 C 10,6 C 64 % 1026,4 hPa 0,0 l/m 2 min 0 min 422 W/m 25,7 km/h (4 Bft) 100,00 %
02.05.2023 14:00 13,6 C 14,4 C 10,6 C 63 % 1026,4 hPa 0,0 l/m 2 min 0 min 449 W/m 19,3 km/h (3 Bft) 97,83 %
02.05.2023 14:02 13,6 C 15,0 C 10,6 C 64 % 1026,4 hPa 0,0 l/m 2 min 0 min 494 W/m 16,1 km/h (3 Bft) 100,00 %
02.05.2023 14:04 13,6 C 17,2 C 10,6 C 65 % 1026,4 hPa 0,0 l/m 2 min 0 min 524 W/m 19,3 km/h (3 Bft) 100,00 %
02.05.2023 14:06 13,6 C 17,2 C 10,6 C 64 % 1026,5 hPa 0,0 l/m 2 min 0 min 526 W/m 22,5 km/h (4 Bft) 100,00 %
02.05.2023 14:08 13,6 C 16,1 C 10,6 C 62 % 1026,5 hPa 0,0 l/m 2 min 0 min 496 W/m 12,9 km/h (3 Bft) 100,00 %
02.05.2023 14:10 13,6 C 16,1 C 10,6 C 63 % 1026,5 hPa 0,0 l/m 2 min 0 min 483 W/m 12,9 km/h (3 Bft) 100,00 %
02.05.2023 14:12 13,6 C 15,6 C 10,6 C 64 % 1026,5 hPa 0,0 l/m 2 min 0 min 448 W/m 12,9 km/h (3 Bft) 100,00 %
02.05.2023 14:14 13,5 C 15,0 C 10,6 C 63 % 1026,5 hPa 0,0 l/m 2 min 0 min 405 W/m 16,1 km/h (3 Bft) 100,00 %
02.05.2023 14:16 13,6 C 16,1 C 10,6 C 63 % 1026,6 hPa 0,0 l/m 2 min 0 min 463 W/m 19,3 km/h (3 Bft) 100,00 %
02.05.2023 14:18 13,7 C 19,4 C 11,1 C 63 % 1026,6 hPa 0,0 l/m 2 min 0 min 818 W/m 16,1 km/h (3 Bft) 100,00 %
02.05.2023 14:20 13,7 C 18,3 C 11,1 C 61 % 1026,5 hPa 0,0 l/m 2 min 0 min 1030 W/m 12,9 km/h (3 Bft) 100,00 %
02.05.2023 14:22 13,7 C 16,7 C 10,6 C 61 % 1026,6 hPa 0,0 l/m 2 min 0 min 446 W/m 22,5 km/h (4 Bft) 97,87 %
02.05.2023 14:24 13,8 C 18,3 C 10,6 C 61 % 1026,5 hPa 0,0 l/m 2 min 0 min 392 W/m 25,7 km/h (4 Bft) 100,00 %
02.05.2023 14:26 13,9 C 17,8 C 10,6 C 61 % 1026,7 hPa 0,0 l/m 2 min 0 min 403 W/m 16,1 km/h (3 Bft) 100,00 %
02.05.2023 14:28 13,9 C 16,7 C 10,6 C 61 % 1026,7 hPa 0,0 l/m 0 min 0 min 358 W/m 16,1 km/h (3 Bft) 100,00 %
02.05.2023 14:30 13,8 C 16,7 C 10,6 C 61 % 1026,7 hPa 0,0 l/m 0 min 0 min 323 W/m 19,3 km/h (3 Bft) 100,00 %
02.05.2023 14:32 13,8 C 16,1 C 10,0 C 59 % 1026,6 hPa 0,0 l/m 0 min 0 min 313 W/m 9,7 km/h (2 Bft) 97,87 %
02.05.2023 14:34 13,7 C 15,6 C 10,0 C 59 % 1026,6 hPa 0,0 l/m 0 min 0 min 283 W/m 16,1 km/h (3 Bft) 100,00 %
02.05.2023 14:36 13,6 C 14,4 C 10,0 C 60 % 1026,7 hPa 0,0 l/m 0 min 0 min 263 W/m 19,3 km/h (3 Bft) 100,00 %
02.05.2023 14:38 13,4 C 13,9 C 9,4 C 60 % 1026,7 hPa 0,0 l/m 0 min 0 min 265 W/m 16,1 km/h (3 Bft) 100,00 %
02.05.2023 14:40 13,3 C 14,4 C 9,4 C 60 % 1026,8 hPa 0,0 l/m 0 min 0 min 296 W/m 19,3 km/h (3 Bft) 100,00 %
02.05.2023 14:42 13,3 C 17,2 C 9,4 C 61 % 1026,8 hPa 0,0 l/m 2 min 0 min 608 W/m 12,9 km/h (3 Bft) 100,00 %
02.05.2023 14:44 13,3 C 16,7 C 9,4 C 60 % 1026,8 hPa 0,0 l/m 2 min 0 min 835 W/m 19,3 km/h (3 Bft) 100,00 %
02.05.2023 14:46 13,3 C 16,1 C 9,4 C 60 % 1026,8 hPa 0,0 l/m 0 min 0 min 372 W/m 19,3 km/h (3 Bft) 100,00 %
02.05.2023 14:48 13,3 C 15,6 C 10,0 C 60 % 1026,8 hPa 0,0 l/m 0 min 0 min 310 W/m 16,1 km/h (3 Bft) 100,00 %
02.05.2023 14:50 13,2 C 15,0 C 9,4 C 60 % 1026,9 hPa 0,0 l/m 0 min 0 min 301 W/m 19,3 km/h (3 Bft) 100,00 %
02.05.2023 14:52 13,2 C 15,0 C 9,4 C 60 % 1026,9 hPa 0,0 l/m 0 min 0 min 299 W/m 16,1 km/h (3 Bft) 100,00 %
02.05.2023 14:54 13,2 C 17,2 C 9,4 C 60 % 1026,9 hPa 0,0 l/m 0 min 0 min 299 W/m 6,4 km/h (2 Bft) 100,00 %
02.05.2023 14:56 13,3 C 19,4 C 9,4 C 60 % 1026,8 hPa 0,0 l/m 2 min 0 min 557 W/m 16,1 km/h (3 Bft) 100,00 %
02.05.2023 14:58 13,6 C 20,6 C 10,0 C 61 % 1026,8 hPa 0,0 l/m 2 min 0 min 957 W/m 16,1 km/h (3 Bft) 100,00 %
02.05.2023 15:00 13,7 C 21,7 C 10,0 C 60 % 1026,8 hPa 0,0 l/m 2 min 0 min 985 W/m 16,1 km/h (3 Bft) 100,00 %
02.05.2023 15:02 13,9 C 21,7 C 10,6 C 58 % 1026,9 hPa 0,0 l/m 2 min 0 min 1048 W/m 12,9 km/h (3 Bft) 97,37 %
02.05.2023 15:04 14,2 C 22,2 C 10,6 C 58 % 1026,8 hPa 0,0 l/m 2 min 0 min 766 W/m 12,9 km/h (3 Bft) 100,00 %
02.05.2023 15:06 14,3 C 22,2 C 10,6 C 57 % 1026,9 hPa 0,0 l/m 2 min 0 min 764 W/m 12,9 km/h (3 Bft) 100,00 %
02.05.2023 15:08 14,3 C 21,1 C 11,1 C 57 % 1026,8 hPa 0,0 l/m 2 min 0 min 762 W/m 6,4 km/h (2 Bft) 97,87 %
02.05.2023 15:10 14,4 C 18,3 C 10,6 C 57 % 1026,8 hPa 0,0 l/m 2 min 0 min 723 W/m 16,1 km/h (3 Bft) 97,83 %
02.05.2023 15:12 14,3 C 16,7 C 10,6 C 58 % 1026,8 hPa 0,0 l/m 2 min 0 min 374 W/m 12,9 km/h (3 Bft) 98,18 %
02.05.2023 15:14 14,3 C 16,1 C 10,6 C 59 % 1026,8 hPa 0,0 l/m 0 min 0 min 344 W/m 19,3 km/h (3 Bft) 100,00 %
02.05.2023 15:16 14,3 C 17,8 C 10,6 C 59 % 1026,8 hPa 0,0 l/m 0 min 0 min 308 W/m 19,3 km/h (3 Bft) 100,00 %
02.05.2023 15:18 14,3 C 20,0 C 10,6 C 59 % 1026,8 hPa 0,0 l/m 2 min 0 min 882 W/m 16,1 km/h (3 Bft) 98,00 %
02.05.2023 15:20 14,3 C 18,3 C 10,6 C 58 % 1026,8 hPa 0,0 l/m 2 min 0 min 995 W/m 12,9 km/h (3 Bft) 95,65 %
02.05.2023 15:22 14,3 C 16,7 C 10,0 C 59 % 1026,9 hPa 0,0 l/m 0 min 0 min 326 W/m 16,1 km/h (3 Bft) 100,00 %
02.05.2023 15:24 14,1 C 16,7 C 10,0 C 58 % 1026,9 hPa 0,0 l/m 0 min 0 min 312 W/m 9,7 km/h (2 Bft) 100,00 %
02.05.2023 15:26 14,1 C 17,2 C 10,0 C 59 % 1026,9 hPa 0,0 l/m 0 min 0 min 306 W/m 16,1 km/h (3 Bft) 97,87 %
02.05.2023 15:28 14,1 C 18,9 C 10,0 C 59 % 1026,9 hPa 0,0 l/m 2 min 0 min 387 W/m 16,1 km/h (3 Bft) 97,87 %
02.05.2023 15:30 14,3 C 20,0 C 10,0 C 60 % 1026,9 hPa 0,0 l/m 2 min 0 min 788 W/m 12,9 km/h (3 Bft) 95,74 %
02.05.2023 15:32 14,3 C 20,6 C 10,0 C 58 % 1026,9 hPa 0,0 l/m 2 min 0 min 794 W/m 9,7 km/h (2 Bft) 95,65 %
02.05.2023 15:34 14,3 C 21,7 C 10,6 C 58 % 1026,9 hPa 0,0 l/m 2 min 0 min 875 W/m 12,9 km/h (3 Bft) 95,74 %
02.05.2023 15:36 14,4 C 22,2 C 10,6 C 57 % 1026,9 hPa 0,0 l/m 2 min 0 min 914 W/m 9,7 km/h (2 Bft) 95,74 %
02.05.2023 15:38 14,6 C 22,2 C 10,6 C 58 % 1026,9 hPa 0,0 l/m 2 min 0 min 916 W/m 22,5 km/h (4 Bft) 93,62 %
02.05.2023 15:40 14,7 C 21,7 C 11,1 C 58 % 1026,9 hPa 0,0 l/m 2 min 0 min 896 W/m 19,3 km/h (3 Bft) 95,74 %
02.05.2023 15:42 14,8 C 21,7 C 10,6 C 56 % 1026,9 hPa 0,0 l/m 2 min 0 min 892 W/m 19,3 km/h (3 Bft) 93,62 %
02.05.2023 15:44 14,8 C 20,6 C 10,6 C 57 % 1026,9 hPa 0,0 l/m 2 min 0 min 879 W/m 9,7 km/h (2 Bft) 93,62 %
02.05.2023 15:46 14,8 C 21,1 C 11,1 C 58 % 1027,0 hPa 0,0 l/m 2 min 0 min 856 W/m 19,3 km/h (3 Bft) 93,48 %
02.05.2023 15:48 14,9 C 21,1 C 10,6 C 57 % 1026,9 hPa 0,0 l/m 2 min 0 min 857 W/m 16,1 km/h (3 Bft) 95,74 %
02.05.2023 15:50 14,9 C 20,0 C 10,6 C 57 % 1027,1 hPa 0,0 l/m 2 min 0 min 872 W/m 16,1 km/h (3 Bft) 95,74 %
02.05.2023 15:52 14,9 C 18,9 C 10,6 C 56 % 1027,0 hPa 0,0 l/m 2 min 0 min 872 W/m 16,1 km/h (3 Bft) 95,74 %
02.05.2023 15:54 14,8 C 18,9 C 10,6 C 57 % 1027,1 hPa 0,0 l/m 2 min 0 min 861 W/m 16,1 km/h (3 Bft) 95,74 %
02.05.2023 15:56 14,8 C 18,9 C 10,6 C 56 % 1027,0 hPa 0,0 l/m 2 min 0 min 813 W/m 12,9 km/h (3 Bft) 91,49 %
02.05.2023 15:58 14,8 C 19,4 C 10,6 C 56 % 1027,1 hPa 0,0 l/m 2 min 0 min 775 W/m 25,7 km/h (4 Bft) 95,74 %
02.05.2023 16:00 14,8 C 19,4 C 10,6 C 55 % 1027,0 hPa 0,0 l/m 2 min 0 min 762 W/m 19,3 km/h (3 Bft) 93,48 %
02.05.2023 16:02 14,8 C 19,4 C 10,6 C 55 % 1027,0 hPa 0,0 l/m 2 min 0 min 767 W/m 16,1 km/h (3 Bft) 95,74 %
02.05.2023 16:04 14,7 C 18,9 C 10,0 C 55 % 1027,1 hPa 0,0 l/m 2 min 0 min 771 W/m 16,1 km/h (3 Bft) 95,74 %
02.05.2023 16:06 14,6 C 18,9 C 10,0 C 56 % 1027,0 hPa 0,0 l/m 2 min 0 min 764 W/m 6,4 km/h (2 Bft) 93,62 %
02.05.2023 16:08 14,6 C 19,4 C 10,6 C 57 % 1027,1 hPa 0,0 l/m 2 min 0 min 782 W/m 19,3 km/h (3 Bft) 95,74 %
02.05.2023 16:10 14,6 C 18,9 C 10,6 C 56 % 1027,0 hPa 0,0 l/m 2 min 0 min 801 W/m 19,3 km/h (3 Bft) 97,87 %
02.05.2023 16:12 14,6 C 19,4 C 10,6 C 57 % 1027,0 hPa 0,0 l/m 2 min 0 min 798 W/m 29,0 km/h (5 Bft) 94,29 %
02.05.2023 16:14 14,7 C 18,9 C 10,6 C 57 % 1027,0 hPa 0,0 l/m 2 min 0 min 781 W/m 32,2 km/h (5 Bft) 100,00 %
02.05.2023 16:16 14,8 C 18,9 C 10,6 C 57 % 1027,0 hPa 0,0 l/m 2 min 0 min 772 W/m 22,5 km/h (4 Bft) 97,83 %
02.05.2023 16:18 14,8 C 18,9 C 11,1 C 56 % 1027,0 hPa 0,0 l/m 2 min 0 min 758 W/m 32,2 km/h (5 Bft) 97,87 %
02.05.2023 16:20 14,8 C 18,9 C 11,1 C 55 % 1026,9 hPa 0,0 l/m 2 min 0 min 736 W/m 22,5 km/h (4 Bft) 97,87 %
02.05.2023 16:22 14,9 C 19,4 C 11,1 C 55 % 1026,9 hPa 0,0 l/m 2 min 0 min 719 W/m 16,1 km/h (3 Bft) 97,87 %
02.05.2023 16:24 14,9 C 19,4 C 10,6 C 55 % 1026,9 hPa 0,0 l/m 2 min 0 min 683 W/m 19,3 km/h (3 Bft) 95,74 %
02.05.2023 16:26 14,9 C 18,9 C 10,6 C 54 % 1026,9 hPa 0,0 l/m 2 min 0 min 716 W/m 22,5 km/h (4 Bft) 97,87 %
02.05.2023 16:28 14,9 C 18,3 C 10,6 C 54 % 1026,9 hPa 0,0 l/m 2 min 0 min 715 W/m 19,3 km/h (3 Bft) 97,87 %
02.05.2023 16:30 14,9 C 19,4 C 10,6 C 55 % 1026,9 hPa 0,0 l/m 2 min 0 min 663 W/m 12,9 km/h (3 Bft) 97,83 %
02.05.2023 16:32 14,9 C 19,4 C 10,6 C 56 % 1026,8 hPa 0,0 l/m 2 min 0 min 697 W/m 19,3 km/h (3 Bft) 97,87 %
02.05.2023 16:34 15,0 C 20,0 C 11,1 C 56 % 1026,9 hPa 0,0 l/m 2 min 0 min 695 W/m 12,9 km/h (3 Bft) 97,87 %
02.05.2023 16:36 15,0 C 20,0 C 11,1 C 56 % 1026,9 hPa 0,0 l/m 2 min 0 min 693 W/m 16,1 km/h (3 Bft) 95,74 %
02.05.2023 16:38 14,9 C 18,9 C 11,1 C 56 % 1026,9 hPa 0,0 l/m 2 min 0 min 695 W/m 19,3 km/h (3 Bft) 95,74 %
02.05.2023 16:40 14,9 C 18,3 C 11,1 C 56 % 1026,9 hPa 0,0 l/m 2 min 0 min 705 W/m 19,3 km/h (3 Bft) 97,87 %
02.05.2023 16:42 14,9 C 18,9 C 11,1 C 56 % 1026,9 hPa 0,0 l/m 2 min 0 min 687 W/m 19,3 km/h (3 Bft) 97,87 %
02.05.2023 16:44 14,9 C 18,3 C 11,1 C 56 % 1026,8 hPa 0,0 l/m 2 min 0 min 679 W/m 12,9 km/h (3 Bft) 97,83 %
02.05.2023 16:46 14,9 C 19,4 C 11,1 C 56 % 1026,8 hPa 0,0 l/m 2 min 0 min 663 W/m 16,1 km/h (3 Bft) 97,87 %
02.05.2023 16:48 15,0 C 18,9 C 11,1 C 55 % 1026,8 hPa 0,0 l/m 2 min 0 min 661 W/m 22,5 km/h (4 Bft) 97,87 %
02.05.2023 16:50 15,1 C 19,4 C 11,7 C 56 % 1026,8 hPa 0,0 l/m 2 min 0 min 661 W/m 25,7 km/h (4 Bft) 95,74 %
02.05.2023 16:52 15,1 C 19,4 C 11,7 C 56 % 1026,8 hPa 0,0 l/m 2 min 0 min 649 W/m 16,1 km/h (3 Bft) 97,87 %
02.05.2023 16:54 15,1 C 19,4 C 11,7 C 56 % 1026,8 hPa 0,0 l/m 2 min 0 min 636 W/m 12,9 km/h (3 Bft) 95,74 %
02.05.2023 16:56 15,1 C 20,0 C 11,7 C 55 % 1026,8 hPa 0,0 l/m 2 min 0 min 632 W/m 12,9 km/h (3 Bft) 97,87 %
02.05.2023 16:58 15,2 C 20,0 C 11,7 C 55 % 1026,8 hPa 0,0 l/m 2 min 0 min 632 W/m 12,9 km/h (3 Bft) 97,83 %
02.05.2023 17:00 15,2 C 20,0 C 11,7 C 53 % 1026,8 hPa 0,0 l/m 2 min 0 min 630 W/m 19,3 km/h (3 Bft) 97,87 %
02.05.2023 17:02 14,9 C 18,9 C 11,1 C 53 % 1026,7 hPa 0,0 l/m 2 min 0 min 622 W/m 12,9 km/h (3 Bft) 97,87 %
02.05.2023 17:04 14,9 C 19,4 C 11,1 C 55 % 1026,6 hPa 0,0 l/m 2 min 0 min 614 W/m 12,9 km/h (3 Bft) 97,87 %
02.05.2023 17:06 14,9 C 19,4 C 11,1 C 55 % 1026,7 hPa 0,0 l/m 2 min 0 min 616 W/m 9,7 km/h (2 Bft) 98,11 %
02.05.2023 17:08 14,8 C 18,9 C 11,1 C 55 % 1026,7 hPa 0,0 l/m 2 min 0 min 614 W/m 9,7 km/h (2 Bft) 97,87 %
02.05.2023 17:10 14,8 C 18,9 C 11,1 C 56 % 1026,8 hPa 0,0 l/m 2 min 0 min 614 W/m 12,9 km/h (3 Bft) 97,83 %
02.05.2023 17:12 14,8 C 18,9 C 11,1 C 56 % 1026,8 hPa 0,0 l/m 2 min 0 min 612 W/m 12,9 km/h (3 Bft) 97,87 %
02.05.2023 17:14 14,9 C 18,9 C 11,1 C 56 % 1026,7 hPa 0,0 l/m 2 min 0 min 611 W/m 6,4 km/h (2 Bft) 97,87 %
02.05.2023 17:16 14,9 C 19,4 C 11,7 C 56 % 1026,7 hPa 0,0 l/m 2 min 0 min 620 W/m 16,1 km/h (3 Bft) 97,87 %
02.05.2023 17:18 15,1 C 20,0 C 12,2 C 57 % 1026,7 hPa 0,0 l/m 2 min 0 min 631 W/m 16,1 km/h (3 Bft) 97,87 %
02.05.2023 17:20 15,1 C 20,0 C 12,2 C 57 % 1026,7 hPa 0,0 l/m 2 min 0 min 639 W/m 16,1 km/h (3 Bft) 97,87 %
02.05.2023 17:22 15,2 C 20,6 C 12,2 C 57 % 1026,7 hPa 0,0 l/m 2 min 0 min 653 W/m 12,9 km/h (3 Bft) 100,00 %
02.05.2023 17:24 15,3 C 21,7 C 12,8 C 57 % 1026,8 hPa 0,0 l/m 2 min 0 min 650 W/m 9,7 km/h (2 Bft) 100,00 %
02.05.2023 17:26 15,5 C 21,1 C 12,2 C 56 % 1026,7 hPa 0,0 l/m 2 min 0 min 648 W/m 6,4 km/h (2 Bft) 97,87 %
02.05.2023 17:28 15,7 C 22,2 C 12,8 C 57 % 1026,7 hPa 0,0 l/m 2 min 0 min 643 W/m 9,7 km/h (2 Bft) 100,00 %
02.05.2023 17:30 15,8 C 22,2 C 12,8 C 57 % 1026,7 hPa 0,0 l/m 2 min 0 min 653 W/m 16,1 km/h (3 Bft) 100,00 %
02.05.2023 17:32 15,9 C 21,1 C 12,8 C 55 % 1026,7 hPa 0,0 l/m 2 min 0 min 661 W/m 19,3 km/h (3 Bft) 100,00 %
02.05.2023 17:34 15,9 C 20,0 C 12,2 C 55 % 1026,8 hPa 0,0 l/m 2 min 0 min 661 W/m 19,3 km/h (3 Bft) 100,00 %
02.05.2023 17:36 15,9 C 20,0 C 12,8 C 54 % 1026,8 hPa 0,0 l/m 2 min 0 min 617 W/m 22,5 km/h (4 Bft) 100,00 %
02.05.2023 17:38 15,7 C 17,8 C 11,7 C 53 % 1026,8 hPa 0,0 l/m 2 min 0 min 319 W/m 19,3 km/h (3 Bft) 100,00 %
02.05.2023 17:40 15,6 C 17,8 C 11,7 C 54 % 1026,8 hPa 0,0 l/m 0 min 0 min 211 W/m 22,5 km/h (4 Bft) 97,87 %
02.05.2023 17:42 15,6 C 17,8 C 11,7 C 54 % 1026,8 hPa 0,0 l/m 2 min 0 min 565 W/m 19,3 km/h (3 Bft) 100,00 %
02.05.2023 17:44 15,4 C 16,7 C 11,7 C 54 % 1026,8 hPa 0,0 l/m 2 min 0 min 284 W/m 12,9 km/h (3 Bft) 100,00 %
02.05.2023 17:46 15,3 C 16,1 C 11,1 C 54 % 1026,8 hPa 0,0 l/m 0 min 0 min 226 W/m 12,9 km/h (3 Bft) 100,00 %
02.05.2023 17:48 15,1 C 15,0 C 10,6 C 54 % 1026,8 hPa 0,0 l/m 0 min 0 min 159 W/m 3,2 km/h (1 Bft) 100,00 %
02.05.2023 17:50 14,9 C 15,0 C 10,6 C 55 % 1026,8 hPa 0,0 l/m 0 min 0 min 155 W/m 6,4 km/h (2 Bft) 100,00 %
02.05.2023 17:52 14,8 C 15,0 C 10,6 C 55 % 1026,8 hPa 0,0 l/m 0 min 0 min 163 W/m 6,4 km/h (2 Bft) 97,87 %
02.05.2023 17:54 14,7 C 16,7 C 10,6 C 56 % 1026,8 hPa 0,0 l/m 2 min 0 min 318 W/m 12,9 km/h (3 Bft) 100,00 %
02.05.2023 17:56 14,6 C 16,1 C 10,6 C 56 % 1026,8 hPa 0,0 l/m 2 min 0 min 487 W/m 9,7 km/h (2 Bft) 100,00 %
02.05.2023 17:58 14,6 C 16,1 C 10,6 C 57 % 1026,8 hPa 0,0 l/m 2 min 0 min 374 W/m 6,4 km/h (2 Bft) 100,00 %
02.05.2023 18:00 14,6 C 15,6 C 10,6 C 56 % 1026,8 hPa 0,0 l/m 0 min 0 min 124 W/m 6,4 km/h (2 Bft) 100,00 %
02.05.2023 18:02 14,5 C 15,0 C 10,6 C 57 % 1026,8 hPa 0,0 l/m 0 min 0 min 111 W/m 6,4 km/h (2 Bft) 97,83 %
02.05.2023 18:04 14,4 C 14,4 C 10,0 C 56 % 1026,8 hPa 0,0 l/m 0 min 0 min 98 W/m 12,9 km/h (3 Bft) 100,00 %
02.05.2023 18:08 14,3 C 15,0 C 10,0 C 57 % 1026,9 hPa 0,0 l/m 0 min 0 min 129 W/m 16,1 km/h (3 Bft) 98,02 %
02.05.2023 18:10 14,3 C 16,7 C 10,6 C 57 % 1026,9 hPa 0,0 l/m 2 min 0 min 315 W/m 16,1 km/h (3 Bft) 97,87 %
02.05.2023 18:12 14,3 C 17,2 C 11,1 C 57 % 1026,9 hPa 0,0 l/m 2 min 0 min 409 W/m 9,7 km/h (2 Bft) 97,87 %
02.05.2023 18:14 14,3 C 15,6 C 10,6 C 57 % 1026,9 hPa 0,0 l/m 0 min 0 min 172 W/m 16,1 km/h (3 Bft) 93,62 %
02.05.2023 18:16 14,3 C 15,6 C 10,6 C 57 % 1026,9 hPa 0,0 l/m 0 min 0 min 164 W/m 12,9 km/h (3 Bft) 95,65 %
02.05.2023 18:18 14,2 C 15,0 C 10,6 C 57 % 1026,9 hPa 0,0 l/m 0 min 0 min 131 W/m 16,1 km/h (3 Bft) 95,74 %
02.05.2023 18:20 14,2 C 15,0 C 10,6 C 57 % 1026,9 hPa 0,0 l/m 0 min 0 min 108 W/m 12,9 km/h (3 Bft) 95,74 %
02.05.2023 18:22 14,1 C 14,4 C 10,0 C 57 % 1026,9 hPa 0,0 l/m 0 min 0 min 114 W/m 12,9 km/h (3 Bft) 97,87 %
02.05.2023 18:24 14,1 C 15,0 C 10,0 C 58 % 1026,9 hPa 0,0 l/m 0 min 0 min 123 W/m 9,7 km/h (2 Bft) 95,74 %
02.05.2023 18:26 14,1 C 16,1 C 10,0 C 58 % 1027,0 hPa 0,0 l/m 2 min 0 min 191 W/m 9,7 km/h (2 Bft) 95,74 %
02.05.2023 18:28 14,1 C 16,7 C 10,0 C 57 % 1026,9 hPa 0,0 l/m 2 min 0 min 377 W/m 6,4 km/h (2 Bft) 95,74 %
02.05.2023 18:30 14,2 C 17,8 C 10,0 C 58 % 1026,9 hPa 0,0 l/m 2 min 0 min 361 W/m 12,9 km/h (3 Bft) 95,65 %
02.05.2023 18:32 14,3 C 16,7 C 10,0 C 57 % 1026,9 hPa 0,0 l/m 2 min 0 min 247 W/m 22,5 km/h (4 Bft) 93,62 %
02.05.2023 18:34 14,3 C 16,1 C 10,0 C 58 % 1027,0 hPa 0,0 l/m 0 min 0 min 95 W/m 12,9 km/h (3 Bft) 95,74 %
02.05.2023 18:36 14,2 C 15,6 C 10,0 C 57 % 1026,9 hPa 0,0 l/m 0 min 0 min 96 W/m 6,4 km/h (2 Bft) 95,74 %
02.05.2023 18:38 14,1 C 16,1 C 9,4 C 57 % 1027,0 hPa 0,0 l/m 2 min 0 min 290 W/m 12,9 km/h (3 Bft) 95,74 %
02.05.2023 18:40 14,1 C 17,8 C 10,0 C 59 % 1026,9 hPa 0,0 l/m 2 min 0 min 333 W/m 9,7 km/h (2 Bft) 95,74 %
02.05.2023 18:42 14,1 C 17,8 C 9,4 C 59 % 1026,9 hPa 0,0 l/m 2 min 0 min 320 W/m 19,3 km/h (3 Bft) 95,65 %
02.05.2023 18:44 14,0 C 17,2 C 9,4 C 58 % 1026,9 hPa 0,0 l/m 2 min 0 min 308 W/m 19,3 km/h (3 Bft) 93,62 %
02.05.2023 18:46 13,9 C 17,8 C 9,4 C 58 % 1027,0 hPa 0,0 l/m 2 min 0 min 301 W/m 19,3 km/h (3 Bft) 97,87 %
02.05.2023 18:48 13,9 C 17,8 C 9,4 C 58 % 1026,9 hPa 0,0 l/m 2 min 0 min 287 W/m 16,1 km/h (3 Bft) 93,62 %
02.05.2023 18:50 13,9 C 17,2 C 9,4 C 58 % 1026,9 hPa 0,0 l/m 2 min 0 min 278 W/m 12,9 km/h (3 Bft) 100,00 %
02.05.2023 18:52 13,9 C 16,1 C 9,4 C 58 % 1027,0 hPa 0,0 l/m 2 min 0 min 274 W/m 9,7 km/h (2 Bft) 100,00 %
02.05.2023 18:54 13,9 C 15,0 C 9,4 C 58 % 1027,0 hPa 0,0 l/m 2 min 0 min 267 W/m 9,7 km/h (2 Bft) 100,00 %
02.05.2023 18:56 13,8 C 14,4 C 9,4 C 58 % 1027,0 hPa 0,0 l/m 2 min 0 min 260 W/m 12,9 km/h (3 Bft) 97,83 %
02.05.2023 18:58 13,8 C 13,9 C 9,4 C 58 % 1026,9 hPa 0,0 l/m 2 min 0 min 255 W/m 12,9 km/h (3 Bft) 100,00 %
02.05.2023 19:00 13,8 C 13,9 C 9,4 C 59 % 1026,9 hPa 0,0 l/m 2 min 0 min 246 W/m 16,1 km/h (3 Bft) 95,74 %
02.05.2023 19:02 13,7 C 13,3 C 9,4 C 59 % 1027,0 hPa 0,0 l/m 2 min 0 min 212 W/m 12,9 km/h (3 Bft) 100,00 %
02.05.2023 19:04 13,6 C 13,3 C 9,4 C 58 % 1026,9 hPa 0,0 l/m 2 min 0 min 222 W/m 16,1 km/h (3 Bft) 100,00 %
02.05.2023 19:06 13,6 C 13,3 C 9,4 C 59 % 1027,0 hPa 0,0 l/m 2 min 0 min 162 W/m 16,1 km/h (3 Bft) 97,87 %
02.05.2023 19:08 13,5 C 12,8 C 8,9 C 58 % 1027,0 hPa 0,0 l/m 0 min 0 min 66 W/m 16,1 km/h (3 Bft) 100,00 %
02.05.2023 19:10 13,4 C 12,8 C 8,9 C 58 % 1027,0 hPa 0,0 l/m 0 min 0 min 75 W/m 19,3 km/h (3 Bft) 97,87 %
02.05.2023 19:12 13,3 C 12,8 C 8,9 C 59 % 1027,0 hPa 0,0 l/m 0 min 0 min 71 W/m 9,7 km/h (2 Bft) 100,00 %
02.05.2023 19:14 13,2 C 12,8 C 8,9 C 59 % 1027,0 hPa 0,0 l/m 0 min 0 min 66 W/m 12,9 km/h (3 Bft) 97,87 %
02.05.2023 19:16 13,2 C 12,8 C 8,9 C 59 % 1027,0 hPa 0,0 l/m 0 min 0 min 62 W/m 12,9 km/h (3 Bft) 100,00 %
02.05.2023 19:18 13,1 C 12,8 C 8,9 C 59 % 1027,0 hPa 0,0 l/m 0 min 0 min 59 W/m 16,1 km/h (3 Bft) 94,29 %
02.05.2023 19:20 13,1 C 12,8 C 8,9 C 59 % 1027,0 hPa 0,0 l/m 0 min 0 min 61 W/m 16,1 km/h (3 Bft) 97,87 %
02.05.2023 19:22 13,0 C 12,8 C 8,9 C 60 % 1027,1 hPa 0,0 l/m 0 min 0 min 61 W/m 12,9 km/h (3 Bft) 97,87 %
02.05.2023 19:24 12,9 C 12,8 C 8,9 C 59 % 1027,1 hPa 0,0 l/m 0 min 0 min 66 W/m 6,4 km/h (2 Bft) 97,87 %
02.05.2023 19:26 12,9 C 12,8 C 8,3 C 59 % 1027,1 hPa 0,0 l/m 0 min 0 min 66 W/m 9,7 km/h (2 Bft) 95,74 %
02.05.2023 19:28 12,8 C 12,8 C 8,3 C 60 % 1027,1 hPa 0,0 l/m 0 min 0 min 62 W/m 6,4 km/h (2 Bft) 97,87 %
02.05.2023 19:30 12,8 C 12,8 C 8,3 C 61 % 1027,1 hPa 0,0 l/m 0 min 0 min 60 W/m 16,1 km/h (3 Bft) 97,83 %
02.05.2023 19:32 12,8 C 12,8 C 8,9 C 60 % 1027,1 hPa 0,0 l/m 0 min 0 min 56 W/m 9,7 km/h (2 Bft) 97,87 %
02.05.2023 19:34 12,8 C 12,2 C 8,3 C 60 % 1027,1 hPa 0,0 l/m 0 min 0 min 53 W/m 12,9 km/h (3 Bft) 97,87 %
02.05.2023 19:36 12,7 C 12,2 C 8,3 C 59 % 1027,1 hPa 0,0 l/m 0 min 0 min 51 W/m 6,4 km/h (2 Bft) 97,87 %
02.05.2023 19:38 12,7 C 12,2 C 8,3 C 60 % 1027,1 hPa 0,0 l/m 0 min 0 min 49 W/m 16,1 km/h (3 Bft) 97,87 %
02.05.2023 19:40 12,7 C 12,2 C 8,3 C 59 % 1027,1 hPa 0,0 l/m 0 min 0 min 49 W/m 9,7 km/h (2 Bft) 97,87 %
02.05.2023 19:42 12,7 C 12,2 C 8,3 C 60 % 1027,1 hPa 0,0 l/m 0 min 0 min 48 W/m 12,9 km/h (3 Bft) 97,83 %
02.05.2023 19:44 12,6 C 12,2 C 8,3 C 60 % 1027,2 hPa 0,0 l/m 0 min 0 min 46 W/m 12,9 km/h (3 Bft) 97,87 %
02.05.2023 19:46 12,6 C 12,2 C 8,3 C 60 % 1027,2 hPa 0,0 l/m 0 min 0 min 45 W/m 9,7 km/h (2 Bft) 95,74 %
02.05.2023 19:48 12,6 C 12,2 C 8,3 C 60 % 1027,1 hPa 0,0 l/m 0 min 0 min 43 W/m 12,9 km/h (3 Bft) 98,25 %
02.05.2023 19:50 12,6 C 12,2 C 8,3 C 59 % 1027,1 hPa 0,0 l/m 0 min 0 min 42 W/m 9,7 km/h (2 Bft) 97,87 %
02.05.2023 19:52 12,6 C 12,2 C 8,3 C 60 % 1027,2 hPa 0,0 l/m 0 min 0 min 40 W/m 9,7 km/h (2 Bft) 100,00 %
02.05.2023 19:54 12,6 C 12,2 C 8,3 C 60 % 1027,2 hPa 0,0 l/m 0 min 0 min 40 W/m 9,7 km/h (2 Bft) 100,00 %
02.05.2023 19:56 12,5 C 11,7 C 8,3 C 60 % 1027,2 hPa 0,0 l/m 0 min 0 min 39 W/m 6,4 km/h (2 Bft) 100,00 %
02.05.2023 19:58 12,4 C 11,7 C 7,8 C 60 % 1027,2 hPa 0,0 l/m 0 min 0 min 37 W/m 16,1 km/h (3 Bft) 97,87 %
02.05.2023 20:00 12,4 C 11,7 C 7,8 C 59 % 1027,1 hPa 0,0 l/m 0 min 0 min 35 W/m 16,1 km/h (3 Bft) 100,00 %
02.05.2023 20:02 12,3 C 11,7 C 7,8 C 59 % 1027,2 hPa 0,0 l/m 0 min 0 min 34 W/m 16,1 km/h (3 Bft) 97,87 %
02.05.2023 20:04 12,3 C 11,7 C 7,8 C 60 % 1027,2 hPa 0,0 l/m 0 min 0 min 33 W/m 9,7 km/h (2 Bft) 100,00 %
02.05.2023 20:06 12,2 C 11,7 C 7,8 C 59 % 1027,1 hPa 0,0 l/m 0 min 0 min 32 W/m 9,7 km/h (2 Bft) 97,87 %
02.05.2023 20:08 12,2 C 11,7 C 7,8 C 60 % 1027,2 hPa 0,0 l/m 0 min 0 min 31 W/m 6,4 km/h (2 Bft) 97,87 %
02.05.2023 20:10 12,1 C 11,1 C 7,8 C 60 % 1027,2 hPa 0,0 l/m 0 min 0 min 30 W/m 12,9 km/h (3 Bft) 100,00 %
02.05.2023 20:12 12,1 C 11,1 C 7,8 C 60 % 1027,2 hPa 0,0 l/m 0 min 0 min 28 W/m 9,7 km/h (2 Bft) 97,87 %
02.05.2023 20:14 12,1 C 11,1 C 7,8 C 60 % 1027,2 hPa 0,0 l/m 0 min 0 min 28 W/m 9,7 km/h (2 Bft) 97,87 %
02.05.2023 20:16 12,1 C 11,1 C 7,8 C 61 % 1027,2 hPa 0,0 l/m 0 min 0 min 26 W/m 6,4 km/h (2 Bft) 100,00 %
02.05.2023 20:18 12,0 C 11,1 C 7,8 C 61 % 1027,3 hPa 0,0 l/m 0 min 0 min 26 W/m 12,9 km/h (3 Bft) 100,00 %
02.05.2023 20:20 11,9 C 11,1 C 7,8 C 62 % 1027,4 hPa 0,0 l/m 0 min 0 min 25 W/m 6,4 km/h (2 Bft) 97,87 %
02.05.2023 20:22 11,9 C 11,1 C 7,8 C 62 % 1027,3 hPa 0,0 l/m 0 min 0 min 24 W/m 9,7 km/h (2 Bft) 95,74 %
02.05.2023 20:24 11,9 C 11,1 C 7,8 C 62 % 1027,4 hPa 0,0 l/m 0 min 0 min 22 W/m 9,7 km/h (2 Bft) 97,87 %
02.05.2023 20:26 11,8 C 11,1 C 7,2 C 62 % 1027,4 hPa 0,0 l/m 0 min 0 min 21 W/m 6,4 km/h (2 Bft) 97,87 %
02.05.2023 20:28 11,8 C 11,1 C 7,2 C 63 % 1027,4 hPa 0,0 l/m 0 min 0 min 20 W/m 6,4 km/h (2 Bft) 97,87 %
02.05.2023 20:30 11,8 C 10,6 C 7,2 C 63 % 1027,4 hPa 0,0 l/m 0 min 0 min 19 W/m 9,7 km/h (2 Bft) 97,87 %
02.05.2023 20:32 11,7 C 10,6 C 7,2 C 63 % 1027,4 hPa 0,0 l/m 0 min 0 min 18 W/m 22,5 km/h (4 Bft) 97,83 %
02.05.2023 20:34 11,7 C 10,6 C 7,2 C 63 % 1027,5 hPa 0,0 l/m 0 min 0 min 17 W/m 6,4 km/h (2 Bft) 97,87 %
02.05.2023 20:36 11,7 C 11,1 C 7,2 C 64 % 1027,6 hPa 0,0 l/m 0 min 0 min 16 W/m 6,4 km/h (2 Bft) 95,74 %
02.05.2023 20:38 11,7 C 11,1 C 7,2 C 64 % 1027,5 hPa 0,0 l/m 0 min 0 min 14 W/m 9,7 km/h (2 Bft) 95,74 %
02.05.2023 20:40 11,7 C 11,1 C 7,2 C 64 % 1027,4 hPa 0,0 l/m 0 min 0 min 13 W/m 9,7 km/h (2 Bft) 97,87 %
02.05.2023 20:42 11,6 C 11,1 C 7,2 C 64 % 1027,5 hPa 0,0 l/m 0 min 0 min 12 W/m 9,7 km/h (2 Bft) 97,87 %
02.05.2023 20:44 11,6 C 11,1 C 7,2 C 63 % 1027,4 hPa 0,0 l/m 0 min 0 min 12 W/m 9,7 km/h (2 Bft) 97,83 %
02.05.2023 20:46 11,6 C 10,6 C 7,2 C 63 % 1027,5 hPa 0,0 l/m 0 min 0 min 11 W/m 16,1 km/h (3 Bft) 95,74 %
02.05.2023 20:48 11,6 C 10,6 C 7,2 C 63 % 1027,5 hPa 0,0 l/m 0 min 0 min 9 W/m 9,7 km/h (2 Bft) 93,62 %
02.05.2023 20:50 11,6 C 10,6 C 7,2 C 63 % 1027,5 hPa 0,0 l/m 0 min 0 min 8 W/m 9,7 km/h (2 Bft) 97,87 %
02.05.2023 20:52 11,5 C 10,6 C 7,2 C 64 % 1027,5 hPa 0,0 l/m 0 min 0 min 7 W/m 9,7 km/h (2 Bft) 97,87 %
02.05.2023 20:54 11,4 C 10,6 C 6,7 C 64 % 1027,5 hPa 0,0 l/m 0 min 0 min 5 W/m 6,4 km/h (2 Bft) 97,87 %
02.05.2023 20:56 11,4 C 10,6 C 6,7 C 64 % 1027,5 hPa 0,0 l/m 0 min 0 min 5 W/m 12,9 km/h (3 Bft) 97,87 %
02.05.2023 20:58 11,4 C 10,6 C 6,7 C 64 % 1027,5 hPa 0,0 l/m 0 min 0 min 1 W/m 9,7 km/h (2 Bft) 95,74 %
02.05.2023 21:00 11,3 C 10,6 C 6,7 C 64 % 1027,5 hPa 0,0 l/m 0 min 0 min 0 W/m 3,2 km/h (1 Bft) 93,62 %
02.05.2023 21:02 11,3 C 10,6 C 6,7 C 64 % 1027,6 hPa 0,0 l/m 0 min 0 min 0 W/m 6,4 km/h (2 Bft) 95,74 %
02.05.2023 21:04 11,2 C 10,6 C 6,7 C 64 % 1027,6 hPa 0,0 l/m 0 min 0 min 0 W/m 9,7 km/h (2 Bft) 97,62 %
02.05.2023 21:06 11,2 C 10,6 C 6,7 C 65 % 1027,6 hPa 0,0 l/m 0 min 0 min 0 W/m 3,2 km/h (1 Bft) 96,30 %
02.05.2023 21:08 11,2 C 10,6 C 6,7 C 65 % 1027,6 hPa 0,0 l/m 0 min 0 min 0 W/m 3,2 km/h (1 Bft) 93,62 %
02.05.2023 21:10 11,2 C 10,6 C 6,7 C 65 % 1027,7 hPa 0,0 l/m 0 min 0 min 0 W/m 9,7 km/h (2 Bft) 95,65 %
02.05.2023 21:12 11,1 C 10,6 C 6,1 C 65 % 1027,7 hPa 0,0 l/m 0 min 0 min 0 W/m 6,4 km/h (2 Bft) 95,74 %
02.05.2023 21:14 11,1 C 10,0 C 6,1 C 65 % 1027,7 hPa 0,0 l/m 0 min 0 min 0 W/m 16,1 km/h (3 Bft) 95,74 %
02.05.2023 21:16 11,1 C 10,0 C 6,1 C 65 % 1027,8 hPa 0,0 l/m 0 min 0 min 0 W/m 6,4 km/h (2 Bft) 93,62 %
02.05.2023 21:18 11,1 C 10,0 C 6,1 C 65 % 1027,8 hPa 0,0 l/m 0 min 0 min 0 W/m 9,7 km/h (2 Bft) 93,62 %
02.05.2023 21:20 11,0 C 10,0 C 6,1 C 65 % 1027,8 hPa 0,0 l/m 0 min 0 min 0 W/m 3,2 km/h (1 Bft) 93,62 %
02.05.2023 21:22 10,9 C 10,0 C 6,1 C 65 % 1027,9 hPa 0,0 l/m 0 min 0 min 0 W/m 6,4 km/h (2 Bft) 93,62 %
02.05.2023 21:24 10,9 C 10,0 C 6,1 C 65 % 1027,8 hPa 0,0 l/m 0 min 0 min 0 W/m 6,4 km/h (2 Bft) 95,65 %
02.05.2023 21:26 10,9 C 10,0 C 6,1 C 66 % 1027,9 hPa 0,0 l/m 0 min 0 min 0 W/m 9,7 km/h (2 Bft) 93,62 %
02.05.2023 21:28 10,8 C 10,0 C 6,1 C 66 % 1027,9 hPa 0,0 l/m 0 min 0 min 0 W/m 9,7 km/h (2 Bft) 95,74 %
02.05.2023 21:30 10,8 C 10,0 C 6,1 C 67 % 1027,9 hPa 0,0 l/m 0 min 0 min 0 W/m 6,4 km/h (2 Bft) 93,62 %
02.05.2023 21:32 10,8 C 10,0 C 6,1 C 66 % 1027,9 hPa 0,0 l/m 0 min 0 min 0 W/m 12,9 km/h (3 Bft) 93,62 %
02.05.2023 21:34 10,7 C 10,0 C 6,1 C 67 % 1028,0 hPa 0,0 l/m 0 min 0 min 0 W/m 9,7 km/h (2 Bft) 95,74 %
02.05.2023 21:36 10,7 C 10,0 C 6,1 C 67 % 1028,0 hPa 0,0 l/m 0 min 0 min 0 W/m 3,2 km/h (1 Bft) 95,74 %
02.05.2023 21:38 10,7 C 9,4 C 6,1 C 67 % 1028,0 hPa 0,0 l/m 0 min 0 min 0 W/m 3,2 km/h (1 Bft) 95,65 %
02.05.2023 21:40 10,6 C 9,4 C 6,1 C 67 % 1028,1 hPa 0,0 l/m 0 min 0 min 0 W/m 3,2 km/h (1 Bft) 97,87 %
02.05.2023 21:42 10,6 C 9,4 C 6,1 C 67 % 1028,0 hPa 0,0 l/m 0 min 0 min 0 W/m 9,7 km/h (2 Bft) 93,62 %
02.05.2023 21:44 10,6 C 9,4 C 6,1 C 66 % 1028,0 hPa 0,0 l/m 0 min 0 min 0 W/m 6,4 km/h (2 Bft) 95,74 %
02.05.2023 21:46 10,6 C 9,4 C 5,6 C 66 % 1028,0 hPa 0,0 l/m 0 min 0 min 0 W/m 3,2 km/h (1 Bft) 97,22 %
02.05.2023 21:48 10,5 C 9,4 C 5,6 C 67 % 1028,0 hPa 0,0 l/m 0 min 0 min 0 W/m 3,2 km/h (1 Bft) 97,87 %
02.05.2023 21:50 10,5 C 9,4 C 5,6 C 67 % 1028,0 hPa 0,0 l/m 0 min 0 min 0 W/m 6,4 km/h (2 Bft) 97,87 %
02.05.2023 21:52 10,4 C 9,4 C 5,6 C 67 % 1028,0 hPa 0,0 l/m 0 min 0 min 0 W/m 3,2 km/h (1 Bft) 97,87 %
02.05.2023 21:54 10,4 C 9,4 C 5,6 C 68 % 1028,1 hPa 0,0 l/m 0 min 0 min 0 W/m 3,2 km/h (1 Bft) 97,83 %
02.05.2023 21:56 10,3 C 9,4 C 5,6 C 68 % 1028,1 hPa 0,0 l/m 0 min 0 min 0 W/m 3,2 km/h (1 Bft) 97,87 %
02.05.2023 21:58 10,3 C 8,9 C 5,6 C 68 % 1028,1 hPa 0,0 l/m 0 min 0 min 0 W/m 3,2 km/h (1 Bft) 97,87 %
02.05.2023 22:00 10,3 C 8,9 C 5,6 C 68 % 1028,1 hPa 0,0 l/m 0 min 0 min 0 W/m 3,2 km/h (1 Bft) 97,87 %
02.05.2023 22:02 10,3 C 8,9 C 5,6 C 69 % 1028,2 hPa 0,0 l/m 0 min 0 min 0 W/m 6,4 km/h (2 Bft) 97,87 %
02.05.2023 22:04 10,2 C 8,9 C 5,6 C 69 % 1028,1 hPa 0,0 l/m 0 min 0 min 0 W/m 3,2 km/h (1 Bft) 97,62 %
02.05.2023 22:06 10,2 C 8,9 C 5,0 C 69 % 1028,1 hPa 0,0 l/m 0 min 0 min 0 W/m 3,2 km/h (1 Bft) 98,28 %
02.05.2023 22:08 10,2 C 8,9 C 5,0 C 69 % 1028,2 hPa 0,0 l/m 0 min 0 min 0 W/m 6,4 km/h (2 Bft) 97,22 %
02.05.2023 22:10 10,1 C 8,9 C 5,0 C 69 % 1028,1 hPa 0,0 l/m 0 min 0 min 0 W/m 0,0 km/h (0 Bft) 95,65 %
02.05.2023 22:12 10,1 C 8,9 C 5,0 C 69 % 1028,2 hPa 0,0 l/m 0 min 0 min 0 W/m 3,2 km/h (1 Bft) 97,87 %
02.05.2023 22:14 10,1 C 8,3 C 5,0 C 70 % 1028,2 hPa 0,0 l/m 0 min 0 min 0 W/m 3,2 km/h (1 Bft) 97,87 %
02.05.2023 22:16 10,0 C 8,3 C 5,0 C 70 % 1028,2 hPa 0,0 l/m 0 min 0 min 0 W/m 3,2 km/h (1 Bft) 95,74 %
02.05.2023 22:18 10,0 C 8,3 C 5,0 C 70 % 1028,2 hPa 0,0 l/m 0 min 0 min 0 W/m 3,2 km/h (1 Bft) 97,87 %
02.05.2023 22:20 9,9 C 8,3 C 5,0 C 70 % 1028,2 hPa 0,0 l/m 0 min 0 min 0 W/m 3,2 km/h (1 Bft) 97,87 %
02.05.2023 22:22 9,8 C 8,3 C 5,0 C 70 % 1028,2 hPa 0,0 l/m 0 min 0 min 0 W/m 6,4 km/h (2 Bft) 97,87 %
02.05.2023 22:24 9,8 C 8,3 C 5,0 C 70 % 1028,2 hPa 0,0 l/m 0 min 0 min 0 W/m 3,2 km/h (1 Bft) 95,65 %
02.05.2023 22:26 9,8 C 8,3 C 5,0 C 70 % 1028,2 hPa 0,0 l/m 0 min 0 min 0 W/m 3,2 km/h (1 Bft) 97,87 %
02.05.2023 22:28 9,7 C 8,3 C 5,0 C 70 % 1028,3 hPa 0,0 l/m 0 min 0 min 0 W/m 3,2 km/h (1 Bft) 97,87 %
02.05.2023 22:30 9,7 C 8,3 C 5,0 C 70 % 1028,3 hPa 0,0 l/m 0 min 0 min 0 W/m 3,2 km/h (1 Bft) 100,00 %
02.05.2023 22:32 9,7 C 8,3 C 5,0 C 71 % 1028,3 hPa 0,0 l/m 0 min 0 min 0 W/m 0,0 km/h (0 Bft) 97,87 %
02.05.2023 22:34 9,7 C 8,3 C 5,0 C 71 % 1028,3 hPa 0,0 l/m 0 min 0 min 0 W/m 3,2 km/h (1 Bft) 100,00 %
02.05.2023 22:36 9,6 C 8,3 C 5,0 C 71 % 1028,4 hPa 0,0 l/m 0 min 0 min 0 W/m 0,0 km/h (0 Bft) 100,00 %
02.05.2023 22:38 9,6 C 8,3 C 5,0 C 71 % 1028,3 hPa 0,0 l/m 0 min 0 min 0 W/m 3,2 km/h (1 Bft) 100,00 %
02.05.2023 22:40 9,6 C 8,3 C 5,0 C 71 % 1028,4 hPa 0,0 l/m 0 min 0 min 0 W/m 3,2 km/h (1 Bft) 100,00 %
02.05.2023 22:42 9,6 C 8,3 C 5,0 C 71 % 1028,4 hPa 0,0 l/m 0 min 0 min 0 W/m 0,0 km/h (0 Bft) 100,00 %
02.05.2023 22:44 9,5 C 7,8 C 4,4 C 71 % 1028,4 hPa 0,0 l/m 0 min 0 min 0 W/m 0,0 km/h (0 Bft) 100,00 %
02.05.2023 22:46 9,4 C 7,8 C 4,4 C 71 % 1028,4 hPa 0,0 l/m 0 min 0 min 0 W/m 0,0 km/h (0 Bft) 100,00 %
02.05.2023 22:48 9,4 C 7,8 C 4,4 C 72 % 1028,4 hPa 0,0 l/m 0 min 0 min 0 W/m 3,2 km/h (1 Bft) 100,00 %
02.05.2023 22:50 9,4 C 7,8 C 4,4 C 72 % 1028,5 hPa 0,0 l/m 0 min 0 min 0 W/m 0,0 km/h (0 Bft) 97,87 %
02.05.2023 22:52 9,3 C 7,8 C 4,4 C 72 % 1028,5 hPa 0,0 l/m 0 min 0 min 0 W/m 0,0 km/h (0 Bft) 100,00 %
02.05.2023 22:54 9,3 C 7,8 C 4,4 C 72 % 1028,5 hPa 0,0 l/m 0 min 0 min 0 W/m 0,0 km/h (0 Bft) 100,00 %
02.05.2023 22:56 9,3 C 7,8 C 4,4 C 72 % 1028,5 hPa 0,0 l/m 0 min 0 min 0 W/m 3,2 km/h (1 Bft) 100,00 %
02.05.2023 22:58 9,2 C 7,8 C 4,4 C 72 % 1028,5 hPa 0,0 l/m 0 min 0 min 0 W/m 3,2 km/h (1 Bft) 100,00 %
02.05.2023 23:00 9,2 C 7,8 C 4,4 C 72 % 1028,5 hPa 0,0 l/m 0 min 0 min 0 W/m 3,2 km/h (1 Bft) 97,87 %
02.05.2023 23:02 9,1 C 7,8 C 4,4 C 73 % 1028,5 hPa 0,0 l/m 0 min 0 min 0 W/m 3,2 km/h (1 Bft) 97,83 %
02.05.2023 23:04 9,1 C 7,8 C 4,4 C 73 % 1028,5 hPa 0,0 l/m 0 min 0 min 0 W/m 3,2 km/h (1 Bft) 95,74 %
02.05.2023 23:06 9,1 C 7,8 C 4,4 C 73 % 1028,5 hPa 0,0 l/m 0 min 0 min 0 W/m 0,0 km/h (0 Bft) 93,88 %
02.05.2023 23:08 9,0 C 7,8 C 4,4 C 73 % 1028,5 hPa 0,0 l/m 0 min 0 min 0 W/m 0,0 km/h (0 Bft) 97,87 %
02.05.2023 23:10 8,9 C 7,8 C 4,4 C 73 % 1028,5 hPa 0,0 l/m 0 min 0 min 0 W/m 6,4 km/h (2 Bft) 100,00 %
02.05.2023 23:12 8,9 C 7,8 C 4,4 C 73 % 1028,5 hPa 0,0 l/m 0 min 0 min 0 W/m 6,4 km/h (2 Bft) 95,74 %
02.05.2023 23:14 8,8 C 7,8 C 4,4 C 73 % 1028,6 hPa 0,0 l/m 0 min 0 min 0 W/m 3,2 km/h (1 Bft) 97,87 %
02.05.2023 23:16 8,8 C 7,8 C 4,4 C 73 % 1028,5 hPa 0,0 l/m 0 min 0 min 0 W/m 6,4 km/h (2 Bft) 97,87 %
02.05.2023 23:18 8,8 C 7,8 C 4,4 C 73 % 1028,6 hPa 0,0 l/m 0 min 0 min 0 W/m 3,2 km/h (1 Bft) 97,83 %
02.05.2023 23:20 8,8 C 7,8 C 4,4 C 73 % 1028,6 hPa 0,0 l/m 0 min 0 min 0 W/m 3,2 km/h (1 Bft) 98,15 %
02.05.2023 23:22 8,7 C 7,8 C 4,4 C 73 % 1028,6 hPa 0,0 l/m 0 min 0 min 0 W/m 3,2 km/h (1 Bft) 95,74 %
02.05.2023 23:24 8,7 C 7,8 C 4,4 C 73 % 1028,6 hPa 0,0 l/m 0 min 0 min 0 W/m 3,2 km/h (1 Bft) 97,87 %
02.05.2023 23:26 8,7 C 7,8 C 4,4 C 73 % 1028,6 hPa 0,0 l/m 0 min 0 min 0 W/m 3,2 km/h (1 Bft) 97,87 %
02.05.2023 23:28 8,6 C 7,8 C 4,4 C 73 % 1028,6 hPa 0,0 l/m 0 min 0 min 0 W/m 6,4 km/h (2 Bft) 97,87 %
02.05.2023 23:30 8,6 C 7,8 C 4,4 C 73 % 1028,6 hPa 0,0 l/m 0 min 0 min 0 W/m 9,7 km/h (2 Bft) 97,83 %
02.05.2023 23:32 8,6 C 7,8 C 4,4 C 73 % 1028,7 hPa 0,0 l/m 0 min 0 min 0 W/m 6,4 km/h (2 Bft) 95,74 %
02.05.2023 23:34 8,6 C 7,8 C 3,9 C 73 % 1028,7 hPa 0,0 l/m 0 min 0 min 0 W/m 6,4 km/h (2 Bft) 98,08 %
02.05.2023 23:36 8,5 C 7,8 C 3,9 C 73 % 1028,7 hPa 0,0 l/m 0 min 0 min 0 W/m 3,2 km/h (1 Bft) 97,14 %
02.05.2023 23:38 8,5 C 7,8 C 3,9 C 73 % 1028,8 hPa 0,0 l/m 0 min 0 min 0 W/m 6,4 km/h (2 Bft) 97,87 %
02.05.2023 23:40 8,4 C 7,8 C 3,9 C 73 % 1028,8 hPa 0,0 l/m 0 min 0 min 0 W/m 3,2 km/h (1 Bft) 97,87 %
02.05.2023 23:42 8,4 C 7,8 C 3,9 C 74 % 1028,8 hPa 0,0 l/m 0 min 0 min 0 W/m 6,4 km/h (2 Bft) 95,74 %
02.05.2023 23:44 8,4 C 7,8 C 3,9 C 74 % 1028,8 hPa 0,0 l/m 0 min 0 min 0 W/m 3,2 km/h (1 Bft) 97,87 %
02.05.2023 23:46 8,4 C 7,2 C 3,9 C 74 % 1028,8 hPa 0,0 l/m 0 min 0 min 0 W/m 6,4 km/h (2 Bft) 95,65 %
02.05.2023 23:48 8,4 C 7,2 C 3,9 C 74 % 1028,8 hPa 0,0 l/m 0 min 0 min 0 W/m 6,4 km/h (2 Bft) 97,87 %
02.05.2023 23:50 8,4 C 7,2 C 3,9 C 74 % 1028,8 hPa 0,0 l/m 0 min 0 min 0 W/m 3,2 km/h (1 Bft) 97,87 %
02.05.2023 23:52 8,3 C 7,2 C 3,9 C 74 % 1028,8 hPa 0,0 l/m 0 min 0 min 0 W/m 0,0 km/h (0 Bft) 89,36 %
02.05.2023 23:54 8,3 C 7,2 C 3,9 C 74 % 1028,7 hPa 0,0 l/m 0 min 0 min 0 W/m 3,2 km/h (1 Bft) 95,74 %
02.05.2023 23:56 8,3 C 7,2 C 3,9 C 74 % 1028,9 hPa 0,0 l/m 0 min 0 min 0 W/m 6,4 km/h (2 Bft) 100,00 %
02.05.2023 23:58 8,3 C 7,2 C 3,9 C 74 % 1028,8 hPa 0,0 l/m 0 min 0 min 0 W/m 3,2 km/h (1 Bft) 100,00 %
_ Min-Zeit 23:52 23:46 23:34 17:00 00:04 - - - - 00:44 02:18
Minimum _ 8,3 C 7,2 C 3,9 C 53 % 1018,4 hPa - - - - 0,0 km/h (0 Bft) 33,33 %
_ Max-Zeit 17:32 13:38 13:42 03:36 23:56 00:00 12:12 07:40 13:12 12:56 00:00
Maximum _ 15,9 C 22,8 C 16,1 C 95 % 1028,9 hPa 0,0 l/m 4 min 2 min 1091 W/m 35,4 km/h
NW (5 Bft)
100,00 %
Durchschnitt _ 11,5 C 12,4 C 7,8 C 77 % 1024,4 hPa #0,0 l/m #5:52 h #6 min. 334 W/m 11,2 km/h (2 Bft) 97,28 %
© 2023 W. Hausmann